Observation data for Mertzon on 05/16/2018      Previous  Date  Next       Current Mesonet Observations  Soil Data  Daily Summary Page  Observations in Plain Language
KME1 160500Z 08002KT 19/15 A3002 RMK A01 T01900151  RH  078%=      5-min Rain = 0
KME1 160501Z 09003KT 19/15 A3001 RMK A01 T01900150  RH  078%=      5-min Rain = 0
KME1 160502Z 10004KT 19/15 A3001 RMK A01 T01900149  RH  077%=      5-min Rain = 0
KME1 160503Z 09003KT 19/15 A3001 RMK A01 T01900151  RH  078%=      5-min Rain = 0
KME1 160504Z 09004KT 19/15 A3001 RMK A01 T01900151  RH  078%=      5-min Rain = 0
KME1 160505Z 09004KT 19/15 A3001 RMK A01 T01900149  RH  077%=      5-min Rain = 0
KME1 160506Z 07003KT 19/15 A3001 RMK A01 T01890150  RH  078%=      5-min Rain = 0
KME1 160507Z 07004KT 19/15 A3001 RMK A01 T01900150  RH  078%=      5-min Rain = 0
KME1 160508Z 06004KT 19/15 A3001 RMK A01 T01900150  RH  078%=      5-min Rain = 0
KME1 160509Z 06004KT 19/15 A3001 RMK A01 T01890150  RH  078%=      5-min Rain = 0
KME1 160510Z 07004KT 19/15 A3001 RMK A01 T01890150  RH  078%=      5-min Rain = 0
KME1 160511Z 06004KT 19/15 A3001 RMK A01 T01890151  RH  078%=      5-min Rain = 0
KME1 160512Z 06003KT 19/15 A3001 RMK A01 T01890151  RH  079%=      5-min Rain = 0
KME1 160513Z 05002KT 19/15 A3002 RMK A01 T01890152  RH  079%=      5-min Rain = 0
KME1 160514Z 04003KT 19/15 A3002 RMK A01 T01890152  RH  079%=      5-min Rain = 0
KME1 160515Z 05003KT 19/15 A3002 RMK A01 T01880152  RH  080%=      5-min Rain = 0
KME1 160516Z 05003KT 19/15 A3002 RMK A01 T01880152  RH  080%=      5-min Rain = 0
KME1 160517Z 03003KT 19/15 A3001 RMK A01 T01880153  RH  080%=      5-min Rain = 0
KME1 160518Z 03003KT 19/15 A3001 RMK A01 T01870153  RH  081%=      5-min Rain = 0
KME1 160519Z 03003KT 19/15 A3001 RMK A01 T01870153  RH  081%=      5-min Rain = 0
KME1 160520Z 03004KT 19/15 A3001 RMK A01 T01870152  RH  080%=      5-min Rain = 0
KME1 160521Z 03004KT 19/15 A3001 RMK A01 T01870153  RH  081%=      5-min Rain = 0
KME1 160522Z 03004KT 19/15 A3002 RMK A01 T01870153  RH  081%=      5-min Rain = 0
KME1 160523Z 03004KT 19/15 A3002 RMK A01 T01870153  RH  081%=      5-min Rain = 0
KME1 160524Z 03004KT 19/15 A3002 RMK A01 T01870153  RH  081%=      5-min Rain = 0
KME1 160525Z 03004KT 19/15 A3002 RMK A01 T01870153  RH  081%=      5-min Rain = 0
KME1 160526Z 02004KT 19/15 A3002 RMK A01 T01860153  RH  081%=      5-min Rain = 0
KME1 160527Z 02004KT 19/15 A3002 RMK A01 T01870154  RH  081%=      5-min Rain = 0
KME1 160528Z 02004KT 19/15 A3002 RMK A01 T01860153  RH  081%=      5-min Rain = 0
KME1 160529Z 03004KT 19/15 A3002 RMK A01 T01860154  RH  081%=      5-min Rain = 0
KME1 160530Z 03005KT 19/15 A3002 RMK A01 T01860154  RH  082%=      5-min Rain = 0
KME1 160531Z 03004KT 19/15 A3002 RMK A01 T01860154  RH  081%=      5-min Rain = 0
KME1 160532Z 03004KT 19/15 A3002 RMK A01 T01860154  RH  081%=      5-min Rain = 0
KME1 160533Z 04004KT 19/15 A3002 RMK A01 T01860154  RH  081%=      5-min Rain = 0
KME1 160534Z 05003KT 19/15 A3002 RMK A01 T01860154  RH  081%=      5-min Rain = 0
KME1 160535Z 05003KT 19/15 A3002 RMK A01 T01860154  RH  081%=      5-min Rain = 0
KME1 160536Z 05005KT 19/15 A3002 RMK A01 T01860153  RH  081%=      5-min Rain = 0
KME1 160537Z 06003KT 19/15 A3002 RMK A01 T01860153  RH  081%=      5-min Rain = 0
KME1 160538Z 06004KT 19/15 A3002 RMK A01 T01860153  RH  081%=      5-min Rain = 0
KME1 160539Z 07003KT 19/15 A3002 RMK A01 T01860153  RH  081%=      5-min Rain = 0
KME1 160540Z 07003KT 19/15 A3002 RMK A01 T01860153  RH  081%=      5-min Rain = 0
KME1 160541Z 08003KT 19/15 A3002 RMK A01 T01860153  RH  081%=      5-min Rain = 0
KME1 160542Z 09003KT 19/15 A3002 RMK A01 T01870153  RH  081%=      5-min Rain = 0
KME1 160543Z 08002KT 19/15 A3001 RMK A01 T01860153  RH  081%=      5-min Rain = 0
KME1 160544Z 09002KT 19/15 A3001 RMK A01 T01870153  RH  081%=      5-min Rain = 0
KME1 160545Z 10004KT 19/15 A3001 RMK A01 T01860152  RH  081%=      5-min Rain = 0
KME1 160546Z 12002KT 19/15 A3001 RMK A01 T01870152  RH  081%=      5-min Rain = 0
KME1 160547Z 11002KT 19/15 A3001 RMK A01 T01860152  RH  081%=      5-min Rain = 0
KME1 160548Z 11003KT 19/15 A3001 RMK A01 T01870152  RH  080%=      5-min Rain = 0
KME1 160549Z 10003KT 19/15 A3001 RMK A01 T01870152  RH  080%=      5-min Rain = 0
KME1 160550Z 09003KT 19/15 A3001 RMK A01 T01870152  RH  080%=      5-min Rain = 0
KME1 160551Z 10003KT 19/15 A3001 RMK A01 T01870152  RH  080%=      5-min Rain = 0
KME1 160552Z 10004KT 19/15 A3001 RMK A01 T01870152  RH  080%=      5-min Rain = 0
KME1 160553Z 10004KT 19/15 A3001 RMK A01 T01870152  RH  080%=      5-min Rain = 0
KME1 160554Z 11003KT 19/15 A3001 RMK A01 T01870152  RH  080%=      5-min Rain = 0
KME1 160555Z 10002KT 19/15 A3001 RMK A01 T01870153  RH  080%=      5-min Rain = 0
KME1 160556Z 11003KT 19/15 A3001 RMK A01 T01870152  RH  080%=      5-min Rain = 0
KME1 160557Z 12002KT 19/15 A3001 RMK A01 T01870152  RH  080%=      5-min Rain = 0
KME1 160558Z 12002KT 19/15 A3001 RMK A01 T01870152  RH  080%=      5-min Rain = 0
KME1 160559Z 11002KT 19/15 A3001 RMK A01 T01870152  RH  080%=      5-min Rain = 0
KME1 160600Z 12002KT 19/15 A3001 RMK A01 T01880152  RH  079%=      5-min Rain = 0
KME1 160601Z 11003KT 19/15 A3001 RMK A01 T01880151  RH  079%=      5-min Rain = 0
KME1 160602Z 11003KT 19/15 A3001 RMK A01 T01880151  RH  079%=      5-min Rain = 0
KME1 160603Z 11001KT 19/15 A3001 RMK A01 T01880152  RH  079%=      5-min Rain = 0
KME1 160604Z 12002KT 19/15 A3001 RMK A01 T01880152  RH  079%=      5-min Rain = 0
KME1 160605Z 13001KT 19/15 A3001 RMK A01 T01880152  RH  079%=      5-min Rain = 0
KME1 160606Z 15000KT 19/15 A3001 RMK A01 T01880151  RH  079%=      5-min Rain = 0
KME1 160607Z 14001KT 19/15 A3001 RMK A01 T01880153  RH  080%=      5-min Rain = 0
KME1 160608Z 14002KT 19/15 A30 RMK A01 T01880153  RH  080%=      5-min Rain = 0
KME1 160609Z 13002KT 19/15 A30 RMK A01 T01880154  RH  080%=      5-min Rain = 0
KME1 160610Z 14001KT 19/16 A30 RMK A01 T01880155  RH  081%=      5-min Rain = 0
KME1 160611Z 12001KT 19/15 A30 RMK A01 T01880154  RH  081%=      5-min Rain = 0
KME1 160612Z 10001KT 19/15 A30 RMK A01 T01880154  RH  081%=      5-min Rain = 0
KME1 160613Z 11001KT 19/16 A30 RMK A01 T01870155  RH  082%=      5-min Rain = 0
KME1 160614Z 08002KT 19/15 A30 RMK A01 T01870153  RH  081%=      5-min Rain = 0
KME1 160615Z 09002KT 19/15 A30 RMK A01 T01870153  RH  081%=      5-min Rain = 0
KME1 160616Z 09002KT 19/15 A30 RMK A01 T01870153  RH  081%=      5-min Rain = 0
KME1 160617Z 07002KT 19/15 A30 RMK A01 T01870153  RH  081%=      5-min Rain = 0
KME1 160618Z 08003KT 19/15 A30 RMK A01 T01870154  RH  081%=      5-min Rain = 0
KME1 160619Z 07003KT 19/15 A30 RMK A01 T01860154  RH  081%=      5-min Rain = 0
KME1 160620Z 05003KT 19/15 A30 RMK A01 T01860153  RH  081%=      5-min Rain = 0
KME1 160621Z 05004KT 19/15 A30 RMK A01 T01860154  RH  081%=      5-min Rain = 0
KME1 160622Z 05004KT 19/16 A30 RMK A01 T01860155  RH  082%=      5-min Rain = 0
KME1 160623Z 04004KT 19/16 A30 RMK A01 T01860155  RH  082%=      5-min Rain = 0
KME1 160624Z 04004KT 19/16 A30 RMK A01 T01860155  RH  083%=      5-min Rain = 0
KME1 160625Z 04004KT 19/16 A30 RMK A01 T01850156  RH  083%=      5-min Rain = 0
KME1 160626Z 04004KT 19/16 A30 RMK A01 T01850156  RH  083%=      5-min Rain = 0
KME1 160627Z 04004KT 18/16 A30 RMK A01 T01840156  RH  083%=      5-min Rain = 0
KME1 160628Z 04005KT 18/16 A30 RMK A01 T01840156  RH  084%=      5-min Rain = 0
KME1 160629Z 04005KT 18/16 A30 RMK A01 T01840156  RH  084%=      5-min Rain = 0
KME1 160630Z 04005KT 18/16 A30 RMK A01 T01840156  RH  084%=      5-min Rain = 0
KME1 160631Z 04005KT 18/16 A30 RMK A01 T01840156  RH  084%=      5-min Rain = 0
KME1 160632Z 05005KT 18/16 A30 RMK A01 T01830156  RH  084%=      5-min Rain = 0
KME1 160633Z 05003KT 18/16 A30 RMK A01 T01830156  RH  084%=      5-min Rain = 0
KME1 160634Z 06004KT 18/16 A30 RMK A01 T01830155  RH  084%=      5-min Rain = 0
KME1 160635Z 07004KT 18/16 A30 RMK A01 T01830155  RH  083%=      5-min Rain = 0
KME1 160636Z 08003KT 18/16 A30 RMK A01 T01840155  RH  083%=      5-min Rain = 0
KME1 160637Z 08002KT 18/16 A30 RMK A01 T01840155  RH  083%=      5-min Rain = 0
KME1 160638Z 08003KT 18/16 A30 RMK A01 T01840155  RH  083%=      5-min Rain = 0
KME1 160639Z 08002KT 18/15 A30 RMK A01 T01840154  RH  083%=      5-min Rain = 0
KME1 160640Z 07004KT 18/16 A30 RMK A01 T01840155  RH  083%=      5-min Rain = 0
KME1 160641Z 06005KT 18/16 A30 RMK A01 T01840155  RH  083%=      5-min Rain = 0
KME1 160642Z 06005KT 18/16 A30 RMK A01 T01840155  RH  083%=      5-min Rain = 0
KME1 160643Z 06005KT 18/16 A30 RMK A01 T01840156  RH  083%=      5-min Rain = 0
KME1 160644Z 06004KT 18/16 A30 RMK A01 T01840155  RH  083%=      5-min Rain = 0
KME1 160645Z 06005KT 18/16 A30 RMK A01 T01840156  RH  084%=      5-min Rain = 0
KME1 160646Z 06005KT 18/16 A30 RMK A01 T01840156  RH  084%=      5-min Rain = 0
KME1 160647Z 06004KT 18/16 A30 RMK A01 T01830156  RH  084%=      5-min Rain = 0
KME1 160648Z 06003KT 18/16 A2999 RMK A01 T01840156  RH  084%=      5-min Rain = 0
KME1 160649Z 07004KT 18/16 A2999 RMK A01 T01830156  RH  084%=      5-min Rain = 0
KME1 160650Z 07004KT 18/16 A2999 RMK A01 T01830156  RH  084%=      5-min Rain = 0
KME1 160651Z 09004KT 18/16 A2999 RMK A01 T01830156  RH  084%=      5-min Rain = 0
KME1 160652Z 10004KT 18/16 A2999 RMK A01 T01830156  RH  084%=      5-min Rain = 0
KME1 160653Z 14005KT 18/16 A2999 RMK A01 T01830156  RH  084%=      5-min Rain = 0
KME1 160654Z 11004KT 18/15 A2999 RMK A01 T01840153  RH  082%=      5-min Rain = 0
KME1 160655Z 10004KT 19/15 A2999 RMK A01 T01860154  RH  082%=      5-min Rain = 0
KME1 160656Z 14003KT 19/16 A2999 RMK A01 T01870155  RH  082%=      5-min Rain = 0
KME1 160657Z 14002KT 19/15 A2998 RMK A01 T01870154  RH  081%=      5-min Rain = 0
KME1 160658Z 13004KT 19/15 A2998 RMK A01 T01870153  RH  080%=      5-min Rain = 0
KME1 160659Z 14003KT 19/15 A2998 RMK A01 T01880153  RH  080%=      5-min Rain = 0
KME1 160700Z 13003KT 19/15 A2998 RMK A01 T01880153  RH  080%=      5-min Rain = 0
KME1 160701Z 14003KT 19/15 A2998 RMK A01 T01890153  RH  080%=      5-min Rain = 0
KME1 160702Z 13002KT 19/15 A2998 RMK A01 T01890153  RH  080%=      5-min Rain = 0
KME1 160703Z 12003KT 19/15 A2998 RMK A01 T01890153  RH  080%=      5-min Rain = 0
KME1 160704Z 14003KT 19/15 A2998 RMK A01 T01890152  RH  079%=      5-min Rain = 0
KME1 160705Z 13003KT 19/15 A2998 RMK A01 T01890152  RH  079%=      5-min Rain = 0
KME1 160706Z 13002KT 19/15 A2998 RMK A01 T01890152  RH  079%=      5-min Rain = 0
KME1 160707Z 12002KT 19/15 A2998 RMK A01 T01900152  RH  079%=      5-min Rain = 0
KME1 160708Z 12002KT 19/15 A2998 RMK A01 T01890152  RH  079%=      5-min Rain = 0
KME1 160709Z 12002KT 19/15 A2997 RMK A01 T01900153  RH  079%=      5-min Rain = 0
KME1 160710Z 12002KT 19/15 A2997 RMK A01 T01890153  RH  079%=      5-min Rain = 0
KME1 160711Z 12002KT 19/15 A2997 RMK A01 T01890153  RH  080%=      5-min Rain = 0
KME1 160712Z 12002KT 19/15 A2997 RMK A01 T01880153  RH  080%=      5-min Rain = 0
KME1 160713Z 10001KT 19/15 A2997 RMK A01 T01880153  RH  080%=      5-min Rain = 0
KME1 160714Z 09001KT 19/15 A2997 RMK A01 T01880153  RH  080%=      5-min Rain = 0
KME1 160715Z 09002KT 19/15 A2997 RMK A01 T01870153  RH  081%=      5-min Rain = 0
KME1 160716Z 08001KT 19/15 A2997 RMK A01 T01870154  RH  081%=      5-min Rain = 0
KME1 160717Z 00000KT 19/16 A2997 RMK A01 T01870156  RH  082%=      5-min Rain = 0
KME1 160718Z 32000KT 19/16 A2997 RMK A01 T01860158  RH  084%=      5-min Rain = 0
KME1 160719Z 32002KT 18/16 A2997 RMK A01 T01840159  RH  085%=      5-min Rain = 0
KME1 160720Z 32002KT 18/16 A2997 RMK A01 T01830159  RH  086%=      5-min Rain = 0
KME1 160721Z 33002KT 18/16 A2997 RMK A01 T01820160  RH  087%=      5-min Rain = 0
KME1 160722Z 34002KT 18/16 A2997 RMK A01 T01810159  RH  087%=      5-min Rain = 0
KME1 160723Z 34003KT 18/16 A2997 RMK A01 T01800159  RH  087%=      5-min Rain = 0
KME1 160724Z 34004KT 18/16 A2997 RMK A01 T01800159  RH  088%=      5-min Rain = 0
KME1 160725Z 34004KT 18/16 A2997 RMK A01 T01790159  RH  088%=      5-min Rain = 0
KME1 160726Z 34004KT 18/16 A2997 RMK A01 T01790159  RH  088%=      5-min Rain = 0
KME1 160727Z 34004KT 18/16 A2997 RMK A01 T01780159  RH  089%=      5-min Rain = 0
KME1 160728Z 35004KT 18/16 A2997 RMK A01 T01780159  RH  089%=      5-min Rain = 0
KME1 160729Z 36004KT 18/16 A2997 RMK A01 T01780160  RH  089%=      5-min Rain = 0
KME1 160730Z 00004KT 18/16 A2997 RMK A01 T01770159  RH  089%=      5-min Rain = 0
KME1 160731Z 00004KT 18/16 A2997 RMK A01 T01770160  RH  089%=      5-min Rain = 0
KME1 160732Z 00004KT 18/16 A2997 RMK A01 T01770160  RH  090%=      5-min Rain = 0
KME1 160733Z 01003KT 18/16 A2996 RMK A01 T01770160  RH  090%=      5-min Rain = 0
KME1 160734Z 02002KT 18/16 A2996 RMK A01 T01770160  RH  090%=      5-min Rain = 0
KME1 160735Z 02002KT 18/16 A2996 RMK A01 T01770160  RH  090%=      5-min Rain = 0
KME1 160736Z 02002KT 18/16 A2996 RMK A01 T01770160  RH  090%=      5-min Rain = 0
KME1 160737Z 03001KT 18/16 A2996 RMK A01 T01770160  RH  090%=      5-min Rain = 0
KME1 160738Z 02001KT 18/16 A2996 RMK A01 T01770160  RH  090%=      5-min Rain = 0
KME1 160739Z 03001KT 18/16 A2996 RMK A01 T01770161  RH  090%=      5-min Rain = 0
KME1 160740Z 03001KT 18/16 A2995 RMK A01 T01770161  RH  090%=      5-min Rain = 0
KME1 160741Z 01000KT 18/16 A2995 RMK A01 T01770160  RH  090%=      5-min Rain = 0
KME1 160742Z 00000KT 18/16 A2995 RMK A01 T01770160  RH  089%=      5-min Rain = 0
KME1 160743Z 28000KT 18/16 A2995 RMK A01 T01770159  RH  089%=      5-min Rain = 0
KME1 160744Z 26001KT 18/16 A2995 RMK A01 T01780160  RH  089%=      5-min Rain = 0
KME1 160745Z 24002KT 18/16 A2995 RMK A01 T01780161  RH  089%=      5-min Rain = 0
KME1 160746Z 23002KT 18/16 A2995 RMK A01 T01780161  RH  090%=      5-min Rain = 0
KME1 160747Z 23002KT 18/16 A2995 RMK A01 T01780161  RH  090%=      5-min Rain = 0
KME1 160748Z 23003KT 18/16 A2995 RMK A01 T01770160  RH  089%=      5-min Rain = 0
KME1 160749Z 23003KT 18/16 A2995 RMK A01 T01770159  RH  089%=      5-min Rain = 0
KME1 160750Z 22003KT 18/16 A2995 RMK A01 T01770159  RH  089%=      5-min Rain = 0
KME1 160751Z 22003KT 18/16 A2995 RMK A01 T01770159  RH  089%=      5-min Rain = 0
KME1 160752Z 22004KT 18/16 A2995 RMK A01 T01770158  RH  089%=      5-min Rain = 0
KME1 160753Z 22003KT 18/16 A2995 RMK A01 T01770158  RH  089%=      5-min Rain = 0
KME1 160754Z 22003KT 18/16 A2995 RMK A01 T01770158  RH  089%=      5-min Rain = 0
KME1 160755Z 23003KT 18/16 A2995 RMK A01 T01770158  RH  088%=      5-min Rain = 0
KME1 160756Z 23004KT 18/16 A2995 RMK A01 T01770157  RH  088%=      5-min Rain = 0
KME1 160757Z 23004KT 18/16 A2995 RMK A01 T01770157  RH  088%=      5-min Rain = 0
KME1 160758Z 24004KT 18/16 A2995 RMK A01 T01770156  RH  088%=      5-min Rain = 0
KME1 160759Z 24003KT 18/16 A2995 RMK A01 T01780156  RH  087%=      5-min Rain = 0
KME1 160800Z 24004KT 18/16 A2995 RMK A01 T01780156  RH  087%=      5-min Rain = 0
KME1 160801Z 24004KT 18/16 A2995 RMK A01 T01780155  RH  086%=      5-min Rain = 0
KME1 160802Z 24004KT 18/16 A2995 RMK A01 T01780155  RH  086%=      5-min Rain = 0
KME1 160803Z 23004KT 18/16 A2995 RMK A01 T01790156  RH  086%=      5-min Rain = 0
KME1 160804Z 24004KT 18/16 A2995 RMK A01 T01790156  RH  086%=      5-min Rain = 0
KME1 160805Z 23004KT 18/16 A2995 RMK A01 T01790156  RH  086%=      5-min Rain = 0
KME1 160806Z 23004KT 18/16 A2995 RMK A01 T01790156  RH  086%=      5-min Rain = 0
KME1 160807Z 23004KT 18/16 A2995 RMK A01 T01790155  RH  086%=      5-min Rain = 0
KME1 160808Z 23004KT 18/16 A2995 RMK A01 T01790155  RH  086%=      5-min Rain = 0
KME1 160809Z 22005KT 18/16 A2995 RMK A01 T01790155  RH  086%=      5-min Rain = 0
KME1 160810Z 22004KT 18/15 A2995 RMK A01 T01790154  RH  085%=      5-min Rain = 0
KME1 160811Z 22004KT 18/15 A2996 RMK A01 T01800153  RH  085%=      5-min Rain = 0
KME1 160812Z 22005KT 18/15 A2996 RMK A01 T01800153  RH  085%=      5-min Rain = 0
KME1 160813Z 22005KT 18/15 A2996 RMK A01 T01800153  RH  084%=      5-min Rain = 0
KME1 160814Z 22005KT 18/15 A2996 RMK A01 T01800152  RH  084%=      5-min Rain = 0
KME1 160815Z 22005KT 18/15 A2996 RMK A01 T01810152  RH  083%=      5-min Rain = 0
KME1 160816Z 22005KT 18/15 A2996 RMK A01 T01810153  RH  083%=      5-min Rain = 0
KME1 160817Z 22005KT 18/15 A2996 RMK A01 T01810153  RH  084%=      5-min Rain = 0
KME1 160818Z 22005KT 18/15 A2996 RMK A01 T01810153  RH  083%=      5-min Rain = 0
KME1 160819Z 22004KT 18/15 A2996 RMK A01 T01810153  RH  083%=      5-min Rain = 0
KME1 160820Z 22004KT 18/15 A2996 RMK A01 T01810153  RH  083%=      5-min Rain = 0
KME1 160821Z 22004KT 18/15 A2996 RMK A01 T01810154  RH  084%=      5-min Rain = 0
KME1 160822Z 22004KT 18/15 A2996 RMK A01 T01810154  RH  084%=      5-min Rain = 0
KME1 160823Z 22004KT 18/15 A2996 RMK A01 T01800154  RH  084%=      5-min Rain = 0
KME1 160824Z 22004KT 18/15 A2996 RMK A01 T01800154  RH  085%=      5-min Rain = 0
KME1 160825Z 22004KT 18/15 A2996 RMK A01 T01790154  RH  085%=      5-min Rain = 0
KME1 160826Z 22004KT 18/15 A2995 RMK A01 T01790154  RH  085%=      5-min Rain = 0
KME1 160827Z 21004KT 18/15 A2995 RMK A01 T01790154  RH  085%=      5-min Rain = 0
KME1 160828Z 21005KT 18/15 A2995 RMK A01 T01790154  RH  085%=      5-min Rain = 0
KME1 160829Z 20005KT 18/15 A2996 RMK A01 T01790153  RH  085%=      5-min Rain = 0
KME1 160830Z 20005KT 18/15 A2996 RMK A01 T01790152  RH  084%=      5-min Rain = 0
KME1 160831Z 20004KT 18/15 A2996 RMK A01 T01800152  RH  084%=      5-min Rain = 0
KME1 160832Z 20004KT 18/15 A2996 RMK A01 T01810151  RH  083%=      5-min Rain = 0
KME1 160833Z 20003KT 18/15 A2996 RMK A01 T01820151  RH  082%=      5-min Rain = 0
KME1 160834Z 19003KT 18/15 A2996 RMK A01 T01820151  RH  082%=      5-min Rain = 0
KME1 160835Z 19002KT 18/15 A2996 RMK A01 T01830151  RH  081%=      5-min Rain = 0
KME1 160836Z 19003KT 18/15 A2996 RMK A01 T01840151  RH  081%=      5-min Rain = 0
KME1 160837Z 18001KT 18/15 A2997 RMK A01 T01840150  RH  080%=      5-min Rain = 0
KME1 160838Z 15001KT 19/15 A2997 RMK A01 T01850150  RH  080%=      5-min Rain = 0
KME1 160839Z 13001KT 19/15 A2997 RMK A01 T01850152  RH  081%=      5-min Rain = 0
KME1 160840Z 11001KT 19/15 A2997 RMK A01 T01850154  RH  082%=      5-min Rain = 0
KME1 160841Z 05002KT 18/15 A2997 RMK A01 T01840154  RH  083%=      5-min Rain = 0
KME1 160842Z 05002KT 18/15 A2997 RMK A01 T01820154  RH  084%=      5-min Rain = 0
KME1 160843Z 06002KT 18/16 A2997 RMK A01 T01810155  RH  085%=      5-min Rain = 0
KME1 160844Z 06002KT 18/15 A2997 RMK A01 T01790154  RH  085%=      5-min Rain = 0
KME1 160845Z 07002KT 18/15 A2997 RMK A01 T01780154  RH  086%=      5-min Rain = 0
KME1 160846Z 09002KT 18/15 A2997 RMK A01 T01780154  RH  086%=      5-min Rain = 0
KME1 160847Z 10002KT 18/15 A2997 RMK A01 T01770154  RH  086%=      5-min Rain = 0
KME1 160848Z 11002KT 18/15 A2997 RMK A01 T01760154  RH  087%=      5-min Rain = 0
KME1 160849Z 13002KT 18/16 A2997 RMK A01 T01760155  RH  087%=      5-min Rain = 0
KME1 160850Z 14002KT 18/16 A2997 RMK A01 T01750155  RH  088%=      5-min Rain = 0
KME1 160851Z 15003KT 18/16 A2997 RMK A01 T01750156  RH  088%=      5-min Rain = 0
KME1 160852Z 15003KT 18/16 A2997 RMK A01 T01750156  RH  089%=      5-min Rain = 0
KME1 160853Z 16003KT 18/16 A2997 RMK A01 T01750156  RH  089%=      5-min Rain = 0
KME1 160854Z 17003KT 18/16 A2997 RMK A01 T01750156  RH  089%=      5-min Rain = 0
KME1 160855Z 18003KT 18/16 A2997 RMK A01 T01750157  RH  089%=      5-min Rain = 0
KME1 160856Z 18004KT 18/16 A2997 RMK A01 T01750157  RH  089%=      5-min Rain = 0
KME1 160857Z 18004KT 18/16 A2997 RMK A01 T01750157  RH  089%=      5-min Rain = 0
KME1 160858Z 19004KT 18/16 A2997 RMK A01 T01750156  RH  089%=      5-min Rain = 0
KME1 160859Z 19004KT 18/16 A2997 RMK A01 T01750156  RH  089%=      5-min Rain = 0
KME1 160900Z 19005KT 18/16 A2997 RMK A01 T01760157  RH  088%=      5-min Rain = 0
KME1 160901Z 19005KT 18/16 A2997 RMK A01 T01760156  RH  088%=      5-min Rain = 0
KME1 160902Z 18005KT 18/16 A2997 RMK A01 T01770155  RH  087%=      5-min Rain = 0
KME1 160903Z 19005KT 18/15 A2997 RMK A01 T01790154  RH  085%=      5-min Rain = 0
KME1 160904Z 19005KT 18/15 A2997 RMK A01 T01810153  RH  084%=      5-min Rain = 0
KME1 160905Z 19005KT 18/15 A2997 RMK A01 T01830153  RH  083%=      5-min Rain = 0
KME1 160906Z 19005KT 18/15 A2997 RMK A01 T01840152  RH  082%=      5-min Rain = 0
KME1 160907Z 18004KT 19/15 A2997 RMK A01 T01860152  RH  080%=      5-min Rain = 0
KME1 160908Z 18004KT 19/15 A2997 RMK A01 T01870152  RH  080%=      5-min Rain = 0
KME1 160909Z 18005KT 19/15 A2997 RMK A01 T01870152  RH  080%=      5-min Rain = 0
KME1 160910Z 18005KT 19/15 A2997 RMK A01 T01880152  RH  080%=      5-min Rain = 0
KME1 160911Z 17004KT 19/15 A2997 RMK A01 T01880151  RH  079%=      5-min Rain = 0
KME1 160912Z 17003KT 19/15 A2997 RMK A01 T01890151  RH  078%=      5-min Rain = 0
KME1 160913Z 17003KT 19/15 A2997 RMK A01 T01900151  RH  078%=      5-min Rain = 0
KME1 160914Z 18003KT 19/15 A2997 RMK A01 T01900151  RH  078%=      5-min Rain = 0
KME1 160915Z 19005KT 19/15 A2998 RMK A01 T01900150  RH  078%=      5-min Rain = 0
KME1 160916Z 19005KT 19/15 A2998 RMK A01 T01910150  RH  077%=      5-min Rain = 0
KME1 160917Z 19005KT 19/15 A2998 RMK A01 T01920150  RH  076%=      5-min Rain = 0
KME1 160918Z 19005KT 19/15 A2998 RMK A01 T01930149  RH  076%=      5-min Rain = 0
KME1 160919Z 18004KT 19/15 A2998 RMK A01 T01940149  RH  075%=      5-min Rain = 0
KME1 160920Z 18004KT 19/15 A2998 RMK A01 T01940149  RH  075%=      5-min Rain = 0
KME1 160921Z 18003KT 20/15 A2998 RMK A01 T01950150  RH  075%=      5-min Rain = 0
KME1 160922Z 17003KT 20/15 A2998 RMK A01 T01950149  RH  075%=      5-min Rain = 0
KME1 160923Z 18003KT 20/15 A2998 RMK A01 T01950150  RH  075%=      5-min Rain = 0
KME1 160924Z 19003KT 20/15 A2998 RMK A01 T01950150  RH  075%=      5-min Rain = 0
KME1 160925Z 17002KT 20/15 A2998 RMK A01 T01950150  RH  075%=      5-min Rain = 0
KME1 160926Z 17002KT 20/15 A2998 RMK A01 T01950150  RH  075%=      5-min Rain = 0
KME1 160927Z 17002KT 20/15 A2998 RMK A01 T01950149  RH  075%=      5-min Rain = 0
KME1 160928Z 17002KT 20/15 A2998 RMK A01 T01950150  RH  075%=      5-min Rain = 0
KME1 160929Z 15001KT 20/15 A2998 RMK A01 T01950149  RH  075%=      5-min Rain = 0
KME1 160930Z 14000KT 20/15 A2998 RMK A01 T01950151  RH  076%=      5-min Rain = 0
KME1 160931Z 06001KT 20/15 A2999 RMK A01 T01950151  RH  076%=      5-min Rain = 0
KME1 160932Z 04002KT 19/15 A2999 RMK A01 T01940152  RH  077%=      5-min Rain = 0
KME1 160933Z 05004KT 19/15 A2999 RMK A01 T01930153  RH  077%=      5-min Rain = 0
KME1 160934Z 04006KT 19/15 A2999 RMK A01 T01930153  RH  078%=      5-min Rain = 0
KME1 160935Z 04008KT 19/15 A30 RMK A01 T01910153  RH  078%=      5-min Rain = 0
KME1 160936Z 05009KT 19/15 A30 RMK A01 T01900153  RH  079%=      5-min Rain = 0
KME1 160937Z 04007KT 19/15 A30 RMK A01 T01890154  RH  080%=      5-min Rain = 0
KME1 160938Z 04007KT 19/16 A30 RMK A01 T01890155  RH  081%=      5-min Rain = 0
KME1 160939Z 05005KT 19/16 A30 RMK A01 T01880155  RH  081%=      5-min Rain = 0
KME1 160940Z 04006KT 19/16 A30 RMK A01 T01880156  RH  082%=      5-min Rain = 0
KME1 160941Z 05004KT 19/16 A30 RMK A01 T01870156  RH  082%=      5-min Rain = 0
KME1 160942Z 05004KT 19/16 A30 RMK A01 T01870156  RH  082%=      5-min Rain = 0
KME1 160943Z 04003KT 19/16 A30 RMK A01 T01870156  RH  082%=      5-min Rain = 0
KME1 160944Z 05001KT 19/16 A3001 RMK A01 T01870155  RH  082%=      5-min Rain = 0
KME1 160945Z 05002KT 19/16 A3001 RMK A01 T01880155  RH  081%=      5-min Rain = 0
KME1 160946Z 07002KT 19/16 A3001 RMK A01 T01880155  RH  081%=      5-min Rain = 0
KME1 160947Z 07003KT 19/16 A30 RMK A01 T01880155  RH  081%=      5-min Rain = 0
KME1 160948Z 05003KT 19/16 A30 RMK A01 T01890155  RH  081%=      5-min Rain = 0
KME1 160949Z 04002KT 19/16 A30 RMK A01 T01890156  RH  081%=      5-min Rain = 0
KME1 160950Z 03001KT 19/16 A30 RMK A01 T01890155  RH  080%=      5-min Rain = 0
KME1 160951Z 03000KT 19/16 A30 RMK A01 T01900155  RH  080%=      5-min Rain = 0
KME1 160952Z 03001KT 19/16 A3001 RMK A01 T01900156  RH  081%=      5-min Rain = 0
KME1 160953Z 02002KT 19/16 A3001 RMK A01 T01900156  RH  080%=      5-min Rain = 0
KME1 160954Z 02003KT 19/16 A3001 RMK A01 T01910156  RH  080%=      5-min Rain = 0
KME1 160955Z 02005KT 19/16 A3001 RMK A01 T01910157  RH  081%=      5-min Rain = 0
KME1 160956Z 02006KT 19/16 A3001 RMK A01 T01910156  RH  080%=      5-min Rain = 0
KME1 160957Z 03007KT 19/16 A3001 RMK A01 T01920156  RH  080%=      5-min Rain = 0
KME1 160958Z 04006KT 19/16 A3002 RMK A01 T01920155  RH  079%=      5-min Rain = 0
KME1 160959Z 04007KT 19/16 A3002 RMK A01 T01920156  RH  079%=      5-min Rain = 0
KME1 161000Z 04009KT 19/16 A3002 RMK A01 T01920155  RH  079%=      5-min Rain = 0
KME1 161001Z 05007KT 19/16 A3002 RMK A01 T01920155  RH  079%=      5-min Rain = 0
KME1 161002Z 05008KT 19/16 A3003 RMK A01 T01930156  RH  079%=      5-min Rain = 0
KME1 161003Z 05010KT 19/16 A3003 RMK A01 T01930156  RH  079%=      5-min Rain = 0
KME1 161004Z 04009KT 19/16 A3003 RMK A01 T01930157  RH  080%=      5-min Rain = 0
KME1 161005Z 05006KT 19/16 A3003 RMK A01 T01920158  RH  080%=      5-min Rain = 0
KME1 161006Z 05008KT 19/16 A3003 RMK A01 T01920158  RH  081%=      5-min Rain = 0
KME1 161007Z 04007KT 19/16 A3003 RMK A01 T01920159  RH  081%=      5-min Rain = 0
KME1 161008Z 05007KT 19/16 A3003 RMK A01 T01910160  RH  082%=      5-min Rain = 0
KME1 161009Z 04005KT 19/16 A3003 RMK A01 T01910160  RH  082%=      5-min Rain = 0
KME1 161010Z 04006KT 19/16 A3003 RMK A01 T01910160  RH  082%=      5-min Rain = 0
KME1 161011Z 05007KT 19/16 A3003 RMK A01 T01910160  RH  082%=      5-min Rain = 0
KME1 161012Z 05005KT 19/16 A3003 RMK A01 T01910160  RH  082%=      5-min Rain = 0
KME1 161013Z 05006KT 19/16 A3003 RMK A01 T01910160  RH  082%=      5-min Rain = 0
KME1 161014Z 05008KT 19/16 A3003 RMK A01 T01910160  RH  082%=      5-min Rain = 0
KME1 161015Z 05007KT 19/16 A3003 RMK A01 T01900160  RH  083%=      5-min Rain = 0
KME1 161016Z 06007KT 19/16 A3004 RMK A01 T01910161  RH  083%=      5-min Rain = 0
KME1 161017Z 05006KT 19/16 A3004 RMK A01 T01900161  RH  083%=      5-min Rain = 0
KME1 161018Z 05008KT 19/16 A3004 RMK A01 T01900161  RH  083%=      5-min Rain = 0
KME1 161019Z 05007KT 19/16 A3004 RMK A01 T01900161  RH  083%=      5-min Rain = 0
KME1 161020Z 05007KT 19/16 A3004 RMK A01 T01900162  RH  084%=      5-min Rain = 0
KME1 161021Z 06006KT 19/16 A3004 RMK A01 T01900161  RH  083%=      5-min Rain = 0
KME1 161022Z 06005KT 19/16 A3004 RMK A01 T01900162  RH  083%=      5-min Rain = 0
KME1 161023Z 07005KT 19/16 A3004 RMK A01 T01900162  RH  084%=      5-min Rain = 0
KME1 161024Z 08005KT 19/16 A3004 RMK A01 T01900162  RH  084%=      5-min Rain = 0
KME1 161025Z 08004KT 19/16 A3004 RMK A01 T01900162  RH  084%=      5-min Rain = 0
KME1 161026Z 09004KT 19/16 A3004 RMK A01 T01900162  RH  084%=      5-min Rain = 0
KME1 161027Z 09006KT 19/16 A3004 RMK A01 T01900162  RH  084%=      5-min Rain = 0
KME1 161028Z 10005KT 19/16 A3004 RMK A01 T01890161  RH  083%=      5-min Rain = 0
KME1 161029Z 10004KT 19/16 A3003 RMK A01 T01890161  RH  084%=      5-min Rain = 0
KME1 161030Z 10004KT 19/16 A3003 RMK A01 T01890161  RH  084%=      5-min Rain = 0
KME1 161031Z 10003KT 19/16 A3003 RMK A01 T01890161  RH  084%=      5-min Rain = 0
KME1 161032Z 11004KT 19/16 A3003 RMK A01 T01880161  RH  084%=      5-min Rain = 0
KME1 161033Z 10004KT 19/16 A3003 RMK A01 T01880161  RH  084%=      5-min Rain = 0
KME1 161034Z 09004KT 19/16 A3003 RMK A01 T01880160  RH  084%=      5-min Rain = 0
KME1 161035Z 09005KT 19/16 A3003 RMK A01 T01880161  RH  084%=      5-min Rain = 0
KME1 161036Z 08004KT 19/16 A3004 RMK A01 T01880161  RH  084%=      5-min Rain = 0
KME1 161037Z 09005KT 19/16 A3004 RMK A01 T01880161  RH  084%=      5-min Rain = 0
KME1 161038Z 09005KT 19/16 A3004 RMK A01 T01870160  RH  085%=      5-min Rain = 0
KME1 161039Z 09006KT 19/16 A3004 RMK A01 T01870160  RH  084%=      5-min Rain = 0
KME1 161040Z 09005KT 19/16 A3003 RMK A01 T01870160  RH  084%=      5-min Rain = 0
KME1 161041Z 09005KT 19/16 A3003 RMK A01 T01870160  RH  084%=      5-min Rain = 0
KME1 161042Z 10005G10KT 19/16 A3003 RMK A01 T01870159  RH  084%=      5-min Rain = 0
KME1 161043Z 11006KT 19/16 A3003 RMK A01 T01870159  RH  084%=      5-min Rain = 0
KME1 161044Z 11005KT 19/16 A3003 RMK A01 T01880159  RH  083%=      5-min Rain = 0
KME1 161045Z 11006KT 19/16 A3003 RMK A01 T01880158  RH  083%=      5-min Rain = 0
KME1 161046Z 11004KT 19/16 A3003 RMK A01 T01880158  RH  083%=      5-min Rain = 0
KME1 161047Z 10006KT 19/16 A3003 RMK A01 T01880158  RH  083%=      5-min Rain = 0
KME1 161048Z 10006KT 19/16 A3003 RMK A01 T01880157  RH  082%=      5-min Rain = 0
KME1 161049Z 10005KT 19/16 A3003 RMK A01 T01880157  RH  082%=      5-min Rain = 0
KME1 161050Z 10005KT 19/16 A3003 RMK A01 T01880157  RH  082%=      5-min Rain = 0
KME1 161051Z 09006KT 19/16 A3003 RMK A01 T01880157  RH  082%=      5-min Rain = 0
KME1 161052Z 09006KT 19/16 A3003 RMK A01 T01880157  RH  082%=      5-min Rain = 0
KME1 161053Z 09007KT 19/16 A3004 RMK A01 T01880157  RH  082%=      5-min Rain = 0
KME1 161054Z 08007KT 19/16 A3004 RMK A01 T01880157  RH  082%=      5-min Rain = 0
KME1 161055Z 09006KT 19/16 A3003 RMK A01 T01890157  RH  082%=      5-min Rain = 0
KME1 161056Z 10006KT 19/16 A3004 RMK A01 T01890157  RH  082%=      5-min Rain = 0
KME1 161057Z 10007KT 19/16 A3004 RMK A01 T01890157  RH  082%=      5-min Rain = 0
KME1 161058Z 10006KT 19/16 A3004 RMK A01 T01890156  RH  081%=      5-min Rain = 0
KME1 161059Z 10005KT 19/16 A3004 RMK A01 T01890156  RH  081%=      5-min Rain = 0
KME1 161100Z 11006KT 19/16 A3004 RMK A01 T01890156  RH  081%=      5-min Rain = 0
KME1 161101Z 11005KT 19/16 A3004 RMK A01 T01890155  RH  081%=      5-min Rain = 0
KME1 161102Z 10006KT 19/16 A3004 RMK A01 T01890155  RH  081%=      5-min Rain = 0
KME1 161103Z 10006KT 19/15 A3004 RMK A01 T01890154  RH  080%=      5-min Rain = 0
KME1 161104Z 10005KT 19/15 A3004 RMK A01 T01890154  RH  080%=      5-min Rain = 0
KME1 161105Z 10005KT 19/15 A3004 RMK A01 T01890154  RH  080%=      5-min Rain = 0
KME1 161106Z 10008KT 19/15 A3004 RMK A01 T01890153  RH  080%=      5-min Rain = 0
KME1 161107Z 10005KT 19/15 A3004 RMK A01 T01900152  RH  079%=      5-min Rain = 0
KME1 161108Z 10006KT 19/15 A3004 RMK A01 T01910152  RH  078%=      5-min Rain = 0
KME1 161109Z 11007KT 19/15 A3004 RMK A01 T01910151  RH  077%=      5-min Rain = 0
KME1 161110Z 11008KT 19/15 A3004 RMK A01 T01920151  RH  077%=      5-min Rain = 0
KME1 161111Z 11007KT 19/15 A3004 RMK A01 T01920150  RH  077%=      5-min Rain = 0
KME1 161112Z 11005KT 19/15 A3004 RMK A01 T01920150  RH  076%=      5-min Rain = 0
KME1 161113Z 11006KT 19/15 A3004 RMK A01 T01920150  RH  076%=      5-min Rain = 0
KME1 161114Z 11009G14KT 19/15 A3004 RMK A01 T01920147  RH  075%=      5-min Rain = 0
KME1 161115Z 10011KT 19/14 A3004 RMK A01 T01940142  RH  072%=      5-min Rain = 0
KME1 161116Z 10012KT 20/14 A3004 RMK A01 T01980137  RH  068%=      5-min Rain = 0
KME1 161117Z 10010G15KT 20/14 A3004 RMK A01 T02010135  RH  066%=      5-min Rain = 0
KME1 161118Z 10009KT 20/14 A3004 RMK A01 T02030135  RH  065%=      5-min Rain = 0
KME1 161119Z 10012G17KT 20/13 A3004 RMK A01 T02040132  RH  063%=      5-min Rain = 0
KME1 161120Z 11013KT 21/13 A3004 RMK A01 T02050129  RH  062%=      5-min Rain = 0
KME1 161121Z 10010G15KT 21/13 A3004 RMK A01 T02070129  RH  061%=      5-min Rain = 0
KME1 161122Z 10014G19KT 21/13 A3004 RMK A01 T02080128  RH  060%=      5-min Rain = 0
KME1 161123Z 10012KT 21/13 A3004 RMK A01 T02090128  RH  060%=      5-min Rain = 0
KME1 161124Z 10013KT 21/13 A3004 RMK A01 T02100126  RH  059%=      5-min Rain = 0
KME1 161125Z 11012G17KT 21/13 A3004 RMK A01 T02110125  RH  058%=      5-min Rain = 0
KME1 161126Z 11016G21KT 21/13 A3004 RMK A01 T02110126  RH  058%=      5-min Rain = 0
KME1 161127Z 10012KT 21/13 A3004 RMK A01 T02120127  RH  058%=      5-min Rain = 0
KME1 161128Z 10012KT 21/13 A3004 RMK A01 T02110130  RH  060%=      5-min Rain = 0
KME1 161129Z 11008KT 21/13 A3004 RMK A01 T02090131  RH  061%=      5-min Rain = 0
KME1 161130Z 10010KT 21/13 A3004 RMK A01 T02070132  RH  062%=      5-min Rain = 0
KME1 161131Z 11010KT 21/13 A3004 RMK A01 T02060133  RH  063%=      5-min Rain = 0
KME1 161132Z 11008KT 21/13 A3004 RMK A01 T02050134  RH  064%=      5-min Rain = 0
KME1 161133Z 11007KT 20/14 A3004 RMK A01 T02040135  RH  065%=      5-min Rain = 0
KME1 161134Z 11008KT 20/14 A3004 RMK A01 T02030135  RH  065%=      5-min Rain = 0
KME1 161135Z 12007KT 20/13 A3004 RMK A01 T02020134  RH  065%=      5-min Rain = 0
KME1 161136Z 12007KT 20/14 A3004 RMK A01 T02020135  RH  065%=      5-min Rain = 0
KME1 161137Z 11007KT 20/13 A3004 RMK A01 T02020134  RH  065%=      5-min Rain = 0
KME1 161138Z 12007KT 20/13 A3004 RMK A01 T02020133  RH  065%=      5-min Rain = 0
KME1 161139Z 12006KT 20/13 A3004 RMK A01 T02020134  RH  065%=      5-min Rain = 0
KME1 161140Z 12008KT 20/13 A3003 RMK A01 T02020134  RH  065%=      5-min Rain = 0
KME1 161141Z 12008KT 20/13 A3003 RMK A01 T02020134  RH  065%=      5-min Rain = 0
KME1 161142Z 13007KT 20/13 A3003 RMK A01 T02020134  RH  065%=      5-min Rain = 0
KME1 161143Z 13008KT 20/13 A3003 RMK A01 T02020134  RH  065%=      5-min Rain = 0
KME1 161144Z 12007KT 20/13 A3003 RMK A01 T02020134  RH  065%=      5-min Rain = 0
KME1 161145Z 13009KT 20/13 A3003 RMK A01 T02020133  RH  065%=      5-min Rain = 0
KME1 161146Z 12006KT 20/13 A3003 RMK A01 T02020133  RH  064%=      5-min Rain = 0
KME1 161147Z 12007KT 20/13 A3003 RMK A01 T02020133  RH  065%=      5-min Rain = 0
KME1 161148Z 12008G13KT 20/13 A3003 RMK A01 T02020133  RH  064%=      5-min Rain = 0
KME1 161149Z 12008KT 20/13 A3003 RMK A01 T02020132  RH  064%=      5-min Rain = 0
KME1 161150Z 13006KT 20/13 A3003 RMK A01 T02020132  RH  064%=      5-min Rain = 0
KME1 161151Z 12009KT 20/13 A3003 RMK A01 T02030133  RH  064%=      5-min Rain = 0
KME1 161152Z 11008KT 20/13 A3003 RMK A01 T02030132  RH  064%=      5-min Rain = 0
KME1 161153Z 12009KT 20/13 A3003 RMK A01 T02030132  RH  064%=      5-min Rain = 0
KME1 161154Z 12011KT 20/13 A3003 RMK A01 T02030131  RH  063%=      5-min Rain = 0
KME1 161155Z 11013KT 20/13 A3003 RMK A01 T02040129  RH  062%=      5-min Rain = 0
KME1 161156Z 10013G19KT 21/13 A3003 RMK A01 T02060129  RH  061%=      5-min Rain = 0
KME1 161157Z 12014G19KT 21/13 A3003 RMK A01 T02070127  RH  060%=      5-min Rain = 0
KME1 161158Z 11011KT 21/13 A3003 RMK A01 T02080126  RH  059%=      5-min Rain = 0
KME1 161159Z 12009KT 21/13 A3003 RMK A01 T02090128  RH  060%=      5-min Rain = 0
KME1 161200Z 11011KT 21/13 A3003 RMK A01 T02090127  RH  060%=      5-min Rain = 0
KME1 161201Z 12010KT 21/13 A3003 RMK A01 T02090127  RH  059%=      5-min Rain = 0
KME1 161202Z 12009G14KT 21/13 A3003 RMK A01 T02090127  RH  060%=      5-min Rain = 0
KME1 161203Z 12007KT 21/13 A3003 RMK A01 T02080127  RH  060%=      5-min Rain = 0
KME1 161204Z 12009KT 21/13 A3003 RMK A01 T02080127  RH  060%=      5-min Rain = 0
KME1 161205Z 12008KT 21/13 A3003 RMK A01 T02070127  RH  060%=      5-min Rain = 0
KME1 161206Z 12009KT 21/13 A3003 RMK A01 T02070127  RH  060%=      5-min Rain = 0
KME1 161207Z 12011KT 21/13 A3003 RMK A01 T02070126  RH  060%=      5-min Rain = 0
KME1 161208Z 12008G13KT 21/13 A3003 RMK A01 T02060125  RH  060%=      5-min Rain = 0
KME1 161209Z 13010KT 21/13 A3002 RMK A01 T02070125  RH  059%=      5-min Rain = 0
KME1 161210Z 13009KT 21/13 A3002 RMK A01 T02070125  RH  059%=      5-min Rain = 0
KME1 161211Z 12013KT 21/12 A3002 RMK A01 T02070124  RH  059%=      5-min Rain = 0
KME1 161212Z 12009KT 21/12 A3002 RMK A01 T02070124  RH  059%=      5-min Rain = 0
KME1 161213Z 13009KT 21/12 A3002 RMK A01 T02080124  RH  059%=      5-min Rain = 0
KME1 161214Z 13009G14KT 21/12 A3002 RMK A01 T02080123  RH  058%=      5-min Rain = 0
KME1 161215Z 13011G17KT 21/12 A3002 RMK A01 T02080122  RH  058%=      5-min Rain = 0
KME1 161216Z 14009KT 21/12 A3002 RMK A01 T02090122  RH  058%=      5-min Rain = 0
KME1 161217Z 14008KT 21/12 A3002 RMK A01 T02090122  RH  057%=      5-min Rain = 0
KME1 161218Z 14009KT 21/12 A3002 RMK A01 T02090122  RH  058%=      5-min Rain = 0
KME1 161219Z 14012KT 21/12 A3002 RMK A01 T02090121  RH  057%=      5-min Rain = 0
KME1 161220Z 14009G14KT 21/12 A3002 RMK A01 T02090121  RH  057%=      5-min Rain = 0
KME1 161221Z 14008KT 21/12 A3002 RMK A01 T02090122  RH  057%=      5-min Rain = 0
KME1 161222Z 14008KT 21/12 A3002 RMK A01 T02090123  RH  058%=      5-min Rain = 0
KME1 161223Z 14006KT 21/12 A3002 RMK A01 T02090123  RH  058%=      5-min Rain = 0
KME1 161224Z 14007KT 21/12 A3002 RMK A01 T02090123  RH  058%=      5-min Rain = 0
KME1 161225Z 15006KT 21/12 A3002 RMK A01 T02100123  RH  058%=      5-min Rain = 0
KME1 161226Z 14007KT 21/12 A3002 RMK A01 T02090123  RH  058%=      5-min Rain = 0
KME1 161227Z 14008KT 21/12 A3002 RMK A01 T02090122  RH  057%=      5-min Rain = 0
KME1 161228Z 14007KT 21/12 A3002 RMK A01 T02100122  RH  057%=      5-min Rain = 0
KME1 161229Z 14008KT 21/12 A3002 RMK A01 T02100122  RH  057%=      5-min Rain = 0
KME1 161230Z 14007KT 21/12 A3002 RMK A01 T02110122  RH  057%=      5-min Rain = 0
KME1 161231Z 14006KT 21/12 A3002 RMK A01 T02110123  RH  057%=      5-min Rain = 0
KME1 161232Z 13007KT 21/12 A3002 RMK A01 T02110123  RH  057%=      5-min Rain = 0
KME1 161233Z 14007KT 21/12 A3002 RMK A01 T02110123  RH  057%=      5-min Rain = 0
KME1 161234Z 14007KT 21/12 A3002 RMK A01 T02120123  RH  057%=      5-min Rain = 0
KME1 161235Z 14007KT 21/12 A3002 RMK A01 T02120122  RH  057%=      5-min Rain = 0
KME1 161236Z 14005KT 21/12 A3002 RMK A01 T02120124  RH  057%=      5-min Rain = 0
KME1 161237Z 14008KT 21/12 A3002 RMK A01 T02120123  RH  057%=      5-min Rain = 0
KME1 161238Z 14009KT 21/12 A3002 RMK A01 T02120122  RH  056%=      5-min Rain = 0
KME1 161239Z 13007KT 21/12 A3002 RMK A01 T02130123  RH  056%=      5-min Rain = 0
KME1 161240Z 14006KT 21/12 A3002 RMK A01 T02130123  RH  056%=      5-min Rain = 0
KME1 161241Z 14006KT 21/12 A3002 RMK A01 T02130121  RH  056%=      5-min Rain = 0
KME1 161242Z 14005KT 21/12 A3002 RMK A01 T02140123  RH  056%=      5-min Rain = 0
KME1 161243Z 14007KT 21/12 A3002 RMK A01 T02140123  RH  056%=      5-min Rain = 0
KME1 161244Z 15005KT 22/12 A3002 RMK A01 T02150123  RH  056%=      5-min Rain = 0
KME1 161245Z 14005KT 22/12 A3002 RMK A01 T02150124  RH  056%=      5-min Rain = 0
KME1 161246Z 15005KT 22/12 A3002 RMK A01 T02160123  RH  056%=      5-min Rain = 0
KME1 161247Z 13005KT 22/12 A3002 RMK A01 T02160124  RH  056%=      5-min Rain = 0
KME1 161248Z 14005KT 22/12 A3002 RMK A01 T02160122  RH  055%=      5-min Rain = 0
KME1 161249Z 14005KT 22/13 A3002 RMK A01 T02170125  RH  056%=      5-min Rain = 0
KME1 161250Z 13007KT 22/12 A3002 RMK A01 T02170123  RH  055%=      5-min Rain = 0
KME1 161251Z 15004KT 22/12 A3002 RMK A01 T02180123  RH  055%=      5-min Rain = 0
KME1 161252Z 15004KT 22/13 A3002 RMK A01 T02180125  RH  055%=      5-min Rain = 0
KME1 161253Z 15005KT 22/13 A3002 RMK A01 T02190126  RH  055%=      5-min Rain = 0
KME1 161254Z 15006KT 22/12 A3002 RMK A01 T02190124  RH  055%=      5-min Rain = 0
KME1 161255Z 15007KT 22/12 A3001 RMK A01 T02190124  RH  055%=      5-min Rain = 0
KME1 161256Z 15007KT 22/12 A3001 RMK A01 T02190123  RH  054%=      5-min Rain = 0
KME1 161257Z 14007KT 22/12 A3001 RMK A01 T02190122  RH  054%=      5-min Rain = 0
KME1 161258Z 14007KT 22/12 A3001 RMK A01 T02190122  RH  054%=      5-min Rain = 0
KME1 161259Z 14007KT 22/12 A3001 RMK A01 T02190123  RH  054%=      5-min Rain = 0
KME1 161300Z 14007KT 22/13 A3001 RMK A01 T02190125  RH  055%=      5-min Rain = 0
KME1 161301Z 15007KT 22/12 A3001 RMK A01 T02200124  RH  055%=      5-min Rain = 0
KME1 161302Z 15007KT 22/12 A3001 RMK A01 T02200124  RH  054%=      5-min Rain = 0
KME1 161303Z 14006KT 22/12 A3001 RMK A01 T02200124  RH  054%=      5-min Rain = 0
KME1 161304Z 14008KT 22/12 A3001 RMK A01 T02210124  RH  054%=      5-min Rain = 0
KME1 161305Z 14007KT 22/12 A3001 RMK A01 T02210124  RH  054%=      5-min Rain = 0
KME1 161306Z 14007KT 22/12 A3001 RMK A01 T02220124  RH  054%=      5-min Rain = 0
KME1 161307Z 13007KT 22/12 A3001 RMK A01 T02220124  RH  054%=      5-min Rain = 0
KME1 161308Z 14008KT 22/12 A3001 RMK A01 T02230124  RH  053%=      5-min Rain = 0
KME1 161309Z 13009KT 22/12 A3001 RMK A01 T02230123  RH  053%=      5-min Rain = 0
KME1 161310Z 13008KT 22/12 A3001 RMK A01 T02230123  RH  053%=      5-min Rain = 0
KME1 161311Z 13008KT 22/12 A3001 RMK A01 T02240123  RH  053%=      5-min Rain = 0
KME1 161312Z 14009KT 22/12 A3001 RMK A01 T02240123  RH  053%=      5-min Rain = 0
KME1 161313Z 14009KT 22/12 A3001 RMK A01 T02240122  RH  052%=      5-min Rain = 0
KME1 161314Z 14007KT 23/12 A3001 RMK A01 T02250124  RH  053%=      5-min Rain = 0
KME1 161315Z 14007KT 23/12 A3001 RMK A01 T02250124  RH  053%=      5-min Rain = 0
KME1 161316Z 15006KT 23/13 A3001 RMK A01 T02260125  RH  053%=      5-min Rain = 0
KME1 161317Z 14006KT 23/13 A3001 RMK A01 T02270126  RH  053%=      5-min Rain = 0
KME1 161318Z 15006KT 23/13 A3001 RMK A01 T02270127  RH  053%=      5-min Rain = 0
KME1 161319Z 14008KT 23/13 A3001 RMK A01 T02280125  RH  052%=      5-min Rain = 0
KME1 161320Z 15006KT 23/13 A3001 RMK A01 T02290126  RH  052%=      5-min Rain = 0
KME1 161321Z 14007KT 23/13 A3001 RMK A01 T02290125  RH  052%=      5-min Rain = 0
KME1 161322Z 15007KT 23/13 A3001 RMK A01 T02300125  RH  052%=      5-min Rain = 0
KME1 161323Z 14007KT 23/12 A3001 RMK A01 T02300124  RH  051%=      5-min Rain = 0
KME1 161324Z 13006KT 23/12 A3001 RMK A01 T02300124  RH  051%=      5-min Rain = 0
KME1 161325Z 14005KT 23/13 A3001 RMK A01 T02310126  RH  052%=      5-min Rain = 0
KME1 161326Z 14005KT 23/13 A3001 RMK A01 T02320126  RH  051%=      5-min Rain = 0
KME1 161327Z 14004KT 23/13 A3001 RMK A01 T02330128  RH  052%=      5-min Rain = 0
KME1 161328Z 14006KT 23/13 A3001 RMK A01 T02340127  RH  051%=      5-min Rain = 0
KME1 161329Z 14005KT 23/13 A3001 RMK A01 T02340128  RH  051%=      5-min Rain = 0
KME1 161330Z 15007KT 24/13 A3001 RMK A01 T02350128  RH  051%=      5-min Rain = 0
KME1 161331Z 15007KT 24/13 A3001 RMK A01 T02350127  RH  051%=      5-min Rain = 0
KME1 161332Z 14007KT 24/13 A3001 RMK A01 T02350127  RH  051%=      5-min Rain = 0
KME1 161333Z 15008KT 24/13 A3001 RMK A01 T02360128  RH  051%=      5-min Rain = 0
KME1 161334Z 14009KT 24/13 A3001 RMK A01 T02360126  RH  050%=      5-min Rain = 0
KME1 161335Z 15008KT 24/13 A3001 RMK A01 T02350125  RH  050%=      5-min Rain = 0
KME1 161336Z 15008KT 24/13 A3001 RMK A01 T02350125  RH  050%=      5-min Rain = 0
KME1 161337Z 15007KT 23/13 A3001 RMK A01 T02340128  RH  051%=      5-min Rain = 0
KME1 161338Z 14010KT 24/13 A3001 RMK A01 T02350127  RH  051%=      5-min Rain = 0
KME1 161339Z 14010KT 24/13 A3001 RMK A01 T02360125  RH  050%=      5-min Rain = 0
KME1 161340Z 14008KT 24/12 A3001 RMK A01 T02360124  RH  049%=      5-min Rain = 0
KME1 161341Z 15008KT 24/13 A3001 RMK A01 T02360125  RH  050%=      5-min Rain = 0
KME1 161342Z 15008KT 24/12 A3001 RMK A01 T02350124  RH  050%=      5-min Rain = 0
KME1 161343Z 15007KT 24/13 A3001 RMK A01 T02360126  RH  050%=      5-min Rain = 0
KME1 161344Z 14008KT 24/13 A3001 RMK A01 T02370126  RH  050%=      5-min Rain = 0
KME1 161345Z 16008KT 24/13 A3001 RMK A01 T02370128  RH  050%=      5-min Rain = 0
KME1 161346Z 15006KT 24/13 A3001 RMK A01 T02370130  RH  051%=      5-min Rain = 0
KME1 161347Z 15007KT 24/13 A3001 RMK A01 T02380129  RH  050%=      5-min Rain = 0
KME1 161348Z 14008KT 24/13 A30 RMK A01 T02390127  RH  050%=      5-min Rain = 0
KME1 161349Z 14008KT 24/13 A30 RMK A01 T02390127  RH  050%=      5-min Rain = 0
KME1 161350Z 13008KT 24/13 A30 RMK A01 T02380127  RH  050%=      5-min Rain = 0
KME1 161351Z 15007KT 24/13 A30 RMK A01 T02390128  RH  050%=      5-min Rain = 0
KME1 161352Z 15007KT 24/13 A30 RMK A01 T02390128  RH  050%=      5-min Rain = 0
KME1 161353Z 15007KT 24/13 A3001 RMK A01 T02400127  RH  049%=      5-min Rain = 0
KME1 161354Z 15007KT 24/13 A3001 RMK A01 T02410128  RH  049%=      5-min Rain = 0
KME1 161355Z 15009KT 24/13 A3001 RMK A01 T02420127  RH  049%=      5-min Rain = 0
KME1 161356Z 14008KT 24/13 A3001 RMK A01 T02420126  RH  048%=      5-min Rain = 0
KME1 161357Z 14008KT 24/13 A3001 RMK A01 T02420126  RH  048%=      5-min Rain = 0
KME1 161358Z 14006KT 24/13 A3001 RMK A01 T02420128  RH  049%=      5-min Rain = 0
KME1 161359Z 13005KT 24/13 A3001 RMK A01 T02440131  RH  049%=      5-min Rain = 0
KME1 161400Z 13005KT 25/13 A3001 RMK A01 T02450131  RH  049%=      5-min Rain = 0
KME1 161401Z 13005KT 25/13 A3001 RMK A01 T02460132  RH  049%=      5-min Rain = 0
KME1 161402Z 14007KT 25/13 A3001 RMK A01 T02470129  RH  048%=      5-min Rain = 0
KME1 161403Z 13005KT 25/13 A3001 RMK A01 T02470128  RH  047%=      5-min Rain = 0
KME1 161404Z 13005KT 25/13 A3001 RMK A01 T02470132  RH  049%=      5-min Rain = 0
KME1 161405Z 13006KT 25/13 A3001 RMK A01 T02470130  RH  048%=      5-min Rain = 0
KME1 161406Z 15005KT 25/13 A3001 RMK A01 T02480127  RH  047%=      5-min Rain = 0
KME1 161407Z 12006KT 25/13 A3002 RMK A01 T02480129  RH  047%=      5-min Rain = 0
KME1 161408Z 13004KT 25/13 A3002 RMK A01 T02500130  RH  047%=      5-min Rain = 0
KME1 161409Z 15003KT 25/13 A3002 RMK A01 T02510131  RH  047%=      5-min Rain = 0
KME1 161410Z 14004KT 25/13 A3002 RMK A01 T02520134  RH  048%=      5-min Rain = 0
KME1 161411Z 15005KT 25/13 A3002 RMK A01 T02540131  RH  047%=      5-min Rain = 0
KME1 161412Z 14006KT 25/13 A3002 RMK A01 T02540129  RH  046%=      5-min Rain = 0
KME1 161413Z 14004KT 26/13 A3002 RMK A01 T02550128  RH  045%=      5-min Rain = 0
KME1 161414Z 13004KT 25/13 A3003 RMK A01 T02540129  RH  046%=      5-min Rain = 0
KME1 161415Z 15003KT 25/13 A3003 RMK A01 T02540132  RH  047%=      5-min Rain = 0
KME1 161416Z 16004KT 26/13 A3003 RMK A01 T02550131  RH  046%=      5-min Rain = 0
KME1 161417Z 14005KT 26/13 A3003 RMK A01 T02560130  RH  046%=      5-min Rain = 0
KME1 161418Z 15004KT 26/13 A3003 RMK A01 T02550128  RH  045%=      5-min Rain = 0
KME1 161419Z 15003KT 26/13 A3003 RMK A01 T02560132  RH  046%=      5-min Rain = 0
KME1 161420Z 16004KT 26/13 A3003 RMK A01 T02560130  RH  045%=      5-min Rain = 0
KME1 161421Z 16005KT 26/13 A3003 RMK A01 T02560128  RH  045%=      5-min Rain = 0
KME1 161422Z 16007KT 26/13 A3003 RMK A01 T02560128  RH  045%=      5-min Rain = 0
KME1 161423Z 17005KT 26/13 A3003 RMK A01 T02560128  RH  045%=      5-min Rain = 0
KME1 161424Z 16006KT 26/13 A3003 RMK A01 T02560132  RH  046%=      5-min Rain = 0
KME1 161425Z 16008KT 26/13 A3003 RMK A01 T02570126  RH  044%=      5-min Rain = 0
KME1 161426Z 16007KT 26/13 A3003 RMK A01 T02570125  RH  044%=      5-min Rain = 0
KME1 161427Z 15006KT 26/12 A3003 RMK A01 T02560123  RH  044%=      5-min Rain = 0
KME1 161428Z 14005KT 26/13 A3003 RMK A01 T02560128  RH  045%=      5-min Rain = 0
KME1 161429Z 16004KT 26/13 A3003 RMK A01 T02570129  RH  045%=      5-min Rain = 0
KME1 161430Z 16005KT 26/13 A3003 RMK A01 T02580130  RH  045%=      5-min Rain = 0
KME1 161431Z 16004KT 26/13 A3003 RMK A01 T02600128  RH  044%=      5-min Rain = 0
KME1 161432Z 15004KT 26/13 A3003 RMK A01 T02610131  RH  045%=      5-min Rain = 0
KME1 161433Z 16005KT 26/13 A3003 RMK A01 T02620130  RH  044%=      5-min Rain = 0
KME1 161434Z 16005KT 26/13 A3003 RMK A01 T02620129  RH  044%=      5-min Rain = 0
KME1 161435Z 15003KT 26/13 A3003 RMK A01 T02620126  RH  043%=      5-min Rain = 0
KME1 161436Z 16003KT 26/13 A3003 RMK A01 T02610126  RH  043%=      5-min Rain = 0
KME1 161437Z 13004KT 26/13 A3003 RMK A01 T02610131  RH  044%=      5-min Rain = 0
KME1 161438Z 12005KT 26/13 A3003 RMK A01 T02620129  RH  044%=      5-min Rain = 0
KME1 161439Z 13006KT 26/13 A3003 RMK A01 T02640126  RH  042%=      5-min Rain = 0
KME1 161440Z 12004KT 26/13 A3004 RMK A01 T02640126  RH  042%=      5-min Rain = 0
KME1 161441Z 13005KT 26/12 A3004 RMK A01 T02640123  RH  042%=      5-min Rain = 0
KME1 161442Z 14006KT 26/12 A3004 RMK A01 T02640123  RH  041%=      5-min Rain = 0
KME1 161443Z 15006KT 26/13 A3004 RMK A01 T02640125  RH  042%=      5-min Rain = 0
KME1 161444Z 14005KT 26/13 A3004 RMK A01 T02640125  RH  042%=      5-min Rain = 0
KME1 161445Z 14007KT 27/13 A3004 RMK A01 T02650126  RH  042%=      5-min Rain = 0
KME1 161446Z 15007KT 27/12 A3004 RMK A01 T02660124  RH  041%=      5-min Rain = 0
KME1 161447Z 15008KT 27/13 A3004 RMK A01 T02660125  RH  041%=      5-min Rain = 0
KME1 161448Z 15007KT 27/12 A3004 RMK A01 T02670123  RH  041%=      5-min Rain = 0
KME1 161449Z 14005KT 27/12 A3003 RMK A01 T02670123  RH  041%=      5-min Rain = 0
KME1 161450Z 15005KT 27/13 A3003 RMK A01 T02670126  RH  042%=      5-min Rain = 0
KME1 161451Z 15004KT 27/13 A3004 RMK A01 T02680128  RH  042%=      5-min Rain = 0
KME1 161452Z 13004KT 27/13 A3004 RMK A01 T02700130  RH  042%=      5-min Rain = 0
KME1 161453Z 12006KT 27/13 A3004 RMK A01 T02720129  RH  041%=      5-min Rain = 0
KME1 161454Z 14006KT 27/13 A3004 RMK A01 T02720126  RH  040%=      5-min Rain = 0
KME1 161455Z 14006KT 27/13 A3004 RMK A01 T02730126  RH  040%=      5-min Rain = 0
KME1 161456Z 14006KT 27/13 A3004 RMK A01 T02720125  RH  040%=      5-min Rain = 0
KME1 161457Z 14006KT 27/13 A3004 RMK A01 T02720125  RH  040%=      5-min Rain = 0
KME1 161458Z 14005KT 27/13 A3004 RMK A01 T02730127  RH  040%=      5-min Rain = 0
KME1 161459Z 15003KT 27/13 A3004 RMK A01 T02730127  RH  040%=      5-min Rain = 0
KME1 161500Z 16004KT 27/13 A3004 RMK A01 T02740130  RH  041%=      5-min Rain = 0
KME1 161501Z 15006KT 28/13 A3004 RMK A01 T02750127  RH  040%=      5-min Rain = 0
KME1 161502Z 13006KT 27/13 A3004 RMK A01 T02740125  RH  040%=      5-min Rain = 0
KME1 161503Z 12005KT 27/12 A3004 RMK A01 T02740123  RH  039%=      5-min Rain = 0
KME1 161504Z 12006KT 27/13 A3004 RMK A01 T02740125  RH  040%=      5-min Rain = 0
KME1 161505Z 16004KT 27/13 A3004 RMK A01 T02740126  RH  040%=      5-min Rain = 0
KME1 161506Z 17004KT 28/13 A3004 RMK A01 T02750129  RH  040%=      5-min Rain = 0
KME1 161507Z 16005KT 28/13 A3004 RMK A01 T02760129  RH  040%=      5-min Rain = 0
KME1 161508Z 16005KT 28/13 A3004 RMK A01 T02780126  RH  039%=      5-min Rain = 0
KME1 161509Z 16004KT 28/13 A3004 RMK A01 T02780126  RH  039%=      5-min Rain = 0
KME1 161510Z 15005KT 28/12 A3004 RMK A01 T02780124  RH  039%=      5-min Rain = 0
KME1 161511Z 14005KT 28/13 A3005 RMK A01 T02780127  RH  039%=      5-min Rain = 0
KME1 161512Z 15003KT 28/13 A3005 RMK A01 T02770129  RH  040%=      5-min Rain = 0
KME1 161513Z 15003KT 28/13 A3005 RMK A01 T02780128  RH  040%=      5-min Rain = 0
KME1 161514Z 14006KT 28/13 A3005 RMK A01 T02790127  RH  039%=      5-min Rain = 0
KME1 161515Z 13005KT 28/13 A3005 RMK A01 T02790125  RH  038%=      5-min Rain = 0
KME1 161516Z 12006KT 28/13 A3004 RMK A01 T02790126  RH  039%=      5-min Rain = 0
KME1 161517Z 13005KT 28/13 A3004 RMK A01 T02790126  RH  039%=      5-min Rain = 0
KME1 161518Z 13004KT 28/13 A3004 RMK A01 T02790125  RH  038%=      5-min Rain = 0
KME1 161519Z 12005KT 28/13 A3004 RMK A01 T02790130  RH  040%=      5-min Rain = 0
KME1 161520Z 13006KT 28/13 A3004 RMK A01 T02800127  RH  039%=      5-min Rain = 0
KME1 161521Z 16006KT 28/13 A3004 RMK A01 T02810126  RH  038%=      5-min Rain = 0
KME1 161522Z 15007KT 28/13 A3004 RMK A01 T02820126  RH  038%=      5-min Rain = 0
KME1 161523Z 14007KT 28/12 A3005 RMK A01 T02820123  RH  037%=      5-min Rain = 0
KME1 161524Z 14008KT 28/12 A3005 RMK A01 T02830123  RH  037%=      5-min Rain = 0
KME1 161525Z 15009KT 28/13 A3005 RMK A01 T02830126  RH  038%=      5-min Rain = 0
KME1 161526Z 15007KT 28/12 A3005 RMK A01 T02840124  RH  037%=      5-min Rain = 0
KME1 161527Z 14008KT 28/12 A3005 RMK A01 T02840121  RH  037%=      5-min Rain = 0
KME1 161528Z 14007KT 28/12 A3005 RMK A01 T02840122  RH  037%=      5-min Rain = 0
KME1 161529Z 14005KT 28/13 A3004 RMK A01 T02840131  RH  039%=      5-min Rain = 0
KME1 161530Z 13008KT 29/13 A3004 RMK A01 T02860126  RH  037%=      5-min Rain = 0
KME1 161531Z 12007KT 29/13 A3004 RMK A01 T02870125  RH  037%=      5-min Rain = 0
KME1 161532Z 14006KT 29/13 A3004 RMK A01 T02870126  RH  037%=      5-min Rain = 0
KME1 161533Z 13005KT 29/13 A3005 RMK A01 T02860125  RH  037%=      5-min Rain = 0
KME1 161534Z 14005KT 29/13 A3004 RMK A01 T02870127  RH  037%=      5-min Rain = 0
KME1 161535Z 14006KT 29/13 A3004 RMK A01 T02870125  RH  037%=      5-min Rain = 0
KME1 161536Z 13004KT 29/13 A3004 RMK A01 T02870127  RH  037%=      5-min Rain = 0
KME1 161537Z 14006KT 29/13 A3004 RMK A01 T02880129  RH  037%=      5-min Rain = 0
KME1 161538Z 14007KT 29/12 A3004 RMK A01 T02890123  RH  036%=      5-min Rain = 0
KME1 161539Z 13007KT 29/12 A3004 RMK A01 T02880123  RH  036%=      5-min Rain = 0
KME1 161540Z 11006KT 29/12 A3004 RMK A01 T02870123  RH  036%=      5-min Rain = 0
KME1 161541Z 12007KT 29/13 A3004 RMK A01 T02860125  RH  037%=      5-min Rain = 0
KME1 161542Z 10006KT 29/13 A3004 RMK A01 T02870126  RH  037%=      5-min Rain = 0
KME1 161543Z 11009KT 29/12 A3004 RMK A01 T02880124  RH  036%=      5-min Rain = 0
KME1 161544Z 14006KT 29/12 A3004 RMK A01 T02880124  RH  036%=      5-min Rain = 0
KME1 161545Z 12005KT 29/12 A3004 RMK A01 T02870122  RH  036%=      5-min Rain = 0
KME1 161546Z 14004KT 29/13 A3004 RMK A01 T02870127  RH  037%=      5-min Rain = 0
KME1 161547Z 13006KT 29/13 A3004 RMK A01 T02890129  RH  037%=      5-min Rain = 0
KME1 161548Z 15006KT 29/13 A3004 RMK A01 T02910128  RH  037%=      5-min Rain = 0
KME1 161549Z 15006KT 29/13 A3004 RMK A01 T02920130  RH  037%=      5-min Rain = 0
KME1 161550Z 12006KT 29/13 A3004 RMK A01 T02930127  RH  036%=      5-min Rain = 0
KME1 161551Z 14004KT 29/13 A3004 RMK A01 T02930126  RH  036%=      5-min Rain = 0
KME1 161552Z 15005KT 29/13 A3004 RMK A01 T02930129  RH  037%=      5-min Rain = 0
KME1 161553Z 11006KT 29/13 A3004 RMK A01 T02940131  RH  037%=      5-min Rain = 0
KME1 161554Z 11007KT 30/13 A3004 RMK A01 T02950126  RH  035%=      5-min Rain = 0
KME1 161555Z 10007KT 30/13 A3004 RMK A01 T02950128  RH  036%=      5-min Rain = 0
KME1 161556Z 11008KT 30/13 A3004 RMK A01 T02950126  RH  035%=      5-min Rain = 0
KME1 161557Z 11007KT 30/13 A3004 RMK A01 T02950125  RH  035%=      5-min Rain = 0
KME1 161558Z 12008KT 30/13 A3004 RMK A01 T02960129  RH  036%=      5-min Rain = 0
KME1 161559Z 11007KT 30/13 A3004 RMK A01 T02970126  RH  035%=      5-min Rain = 0
KME1 161600Z 12008KT 30/12 A3004 RMK A01 T02960121  RH  034%=      5-min Rain = 0
KME1 161601Z 12008KT 30/12 A3004 RMK A01 T02950122  RH  035%=      5-min Rain = 0
KME1 161602Z 13006KT 29/13 A3004 RMK A01 T02940128  RH  036%=      5-min Rain = 0
KME1 161603Z 14007KT 30/13 A3004 RMK A01 T02960131  RH  036%=      5-min Rain = 0
KME1 161604Z 14008KT 30/13 A3004 RMK A01 T02970127  RH  035%=      5-min Rain = 0
KME1 161605Z 15008KT 30/13 A3004 RMK A01 T02970128  RH  036%=      5-min Rain = 0
KME1 161606Z 15008KT 30/13 A3004 RMK A01 T02960128  RH  036%=      5-min Rain = 0
KME1 161607Z 15007KT 30/13 A3004 RMK A01 T02960126  RH  035%=      5-min Rain = 0
KME1 161608Z 13008KT 30/13 A3004 RMK A01 T02950127  RH  036%=      5-min Rain = 0
KME1 161609Z 12007G14KT 30/13 A3004 RMK A01 T02950125  RH  035%=      5-min Rain = 0
KME1 161610Z 12010KT 30/12 A3004 RMK A01 T02960120  RH  034%=      5-min Rain = 0
KME1 161611Z 10010KT 30/12 A3004 RMK A01 T02950123  RH  035%=      5-min Rain = 0
KME1 161612Z 11009KT 30/12 A3004 RMK A01 T02950119  RH  034%=      5-min Rain = 0
KME1 161613Z 11008KT 30/13 A3004 RMK A01 T02950125  RH  035%=      5-min Rain = 0
KME1 161614Z 12010KT 30/13 A3004 RMK A01 T02970128  RH  035%=      5-min Rain = 0
KME1 161615Z 12008KT 30/12 A3004 RMK A01 T02980121  RH  034%=      5-min Rain = 0
KME1 161616Z 12008KT 30/12 A3004 RMK A01 T02980124  RH  034%=      5-min Rain = 0
KME1 161617Z 13008KT 30/12 A3004 RMK A01 T02980121  RH  034%=      5-min Rain = 0
KME1 161618Z 13009KT 30/12 A3004 RMK A01 T02980121  RH  034%=      5-min Rain = 0
KME1 161619Z 10007KT 30/12 A3004 RMK A01 T02970117  RH  033%=      5-min Rain = 0
KME1 161620Z 10007KT 30/12 A3004 RMK A01 T02960120  RH  034%=      5-min Rain = 0
KME1 161621Z 11007KT 30/12 A3004 RMK A01 T02950120  RH  034%=      5-min Rain = 0
KME1 161622Z 10007KT 30/13 A3004 RMK A01 T02960125  RH  035%=      5-min Rain = 0
KME1 161623Z 10009KT 30/13 A3004 RMK A01 T02980127  RH  035%=      5-min Rain = 0
KME1 161624Z 10009KT 30/12 A3004 RMK A01 T02990124  RH  034%=      5-min Rain = 0
KME1 161625Z 10009KT 30/12 A3004 RMK A01 T02980124  RH  034%=      5-min Rain = 0
KME1 161626Z 09008KT 30/12 A3004 RMK A01 T02960121  RH  034%=      5-min Rain = 0
KME1 161627Z 08010KT 30/12 A3004 RMK A01 T02950122  RH  034%=      5-min Rain = 0
KME1 161628Z 10009KT 30/12 A3004 RMK A01 T02960124  RH  035%=      5-min Rain = 0
KME1 161629Z 11009KT 30/13 A3004 RMK A01 T02970126  RH  035%=      5-min Rain = 0
KME1 161630Z 09010KT 30/12 A3004 RMK A01 T02980123  RH  034%=      5-min Rain = 0
KME1 161631Z 09010KT 30/12 A3004 RMK A01 T02970122  RH  034%=      5-min Rain = 0
KME1 161632Z 11011KT 30/12 A3004 RMK A01 T02960122  RH  034%=      5-min Rain = 0
KME1 161633Z 10009KT 30/12 A3004 RMK A01 T02970116  RH  033%=      5-min Rain = 0
KME1 161634Z 11010KT 30/12 A3004 RMK A01 T02960117  RH  033%=      5-min Rain = 0
KME1 161635Z 11009KT 30/12 A3004 RMK A01 T02960118  RH  033%=      5-min Rain = 0
KME1 161636Z 12008KT 30/12 A3004 RMK A01 T02970118  RH  033%=      5-min Rain = 0
KME1 161637Z 11008KT 30/12 A3004 RMK A01 T02970117  RH  033%=      5-min Rain = 0
KME1 161638Z 11007KT 30/12 A3004 RMK A01 T02980120  RH  033%=      5-min Rain = 0
KME1 161639Z 10008KT 30/12 A3004 RMK A01 T03000117  RH  032%=      5-min Rain = 0
KME1 161640Z 10010KT 30/12 A3004 RMK A01 T03000118  RH  033%=      5-min Rain = 0
KME1 161641Z 09010KT 30/12 A3004 RMK A01 T03000119  RH  033%=      5-min Rain = 0
KME1 161642Z 11009KT 30/12 A3004 RMK A01 T02990118  RH  033%=      5-min Rain = 0
KME1 161643Z 08009KT 30/12 A3005 RMK A01 T02990119  RH  033%=      5-min Rain = 0
KME1 161644Z 09014KT 30/14 A3005 RMK A01 T02990137  RH  037%=      5-min Rain = 0
KME1 161645Z 08011G17KT 30/15 A3005 RMK A01 T02960149  RH  041%=      5-min Rain = 0
KME1 161646Z 09012KT 29/15 A3005 RMK A01 T02930147  RH  041%=      5-min Rain = 0
KME1 161647Z 08014KT 29/15 A3005 RMK A01 T02890149  RH  042%=      5-min Rain = 0
KME1 161648Z 09013KT 29/15 A3005 RMK A01 T02870146  RH  042%=      5-min Rain = 0
KME1 161649Z 08012KT 29/15 A3005 RMK A01 T02850146  RH  043%=      5-min Rain = 0
KME1 161650Z 07010KT 28/15 A3005 RMK A01 T02830148  RH  044%=      5-min Rain = 0
KME1 161651Z 07010G15KT 28/15 A3005 RMK A01 T02830150  RH  044%=      5-min Rain = 0
KME1 161652Z 08013KT 28/15 A3005 RMK A01 T02830150  RH  044%=      5-min Rain = 0
KME1 161653Z 08010KT 28/15 A3005 RMK A01 T02820149  RH  044%=      5-min Rain = 0
KME1 161654Z 08009KT 28/15 A3005 RMK A01 T02820149  RH  044%=      5-min Rain = 0
KME1 161655Z 08006KT 28/15 A3005 RMK A01 T02830154  RH  046%=      5-min Rain = 0
KME1 161656Z 08011KT 29/15 A3005 RMK A01 T02870154  RH  044%=      5-min Rain = 0
KME1 161657Z 07011KT 29/15 A3005 RMK A01 T02870149  RH  043%=      5-min Rain = 0
KME1 161658Z 08011KT 29/15 A3005 RMK A01 T02860149  RH  043%=      5-min Rain = 0
KME1 161659Z 09012KT 29/15 A3005 RMK A01 T02850145  RH  042%=      5-min Rain = 0
KME1 161700Z 09010G16KT 29/14 A3005 RMK A01 T02850143  RH  042%=      5-min Rain = 0
KME1 161701Z 08009G15KT 28/14 A3005 RMK A01 T02840144  RH  042%=      5-min Rain = 0
KME1 161702Z 07010KT 28/14 A3005 RMK A01 T02840139  RH  041%=      5-min Rain = 0
KME1 161703Z 06010G15KT 28/14 A3005 RMK A01 T02830143  RH  042%=      5-min Rain = 0
KME1 161704Z 06013KT 28/14 A3005 RMK A01 T02830138  RH  041%=      5-min Rain = 0
KME1 161705Z 07010G15KT 28/14 A3005 RMK A01 T02810138  RH  041%=      5-min Rain = 0
KME1 161706Z 07011KT 28/14 A3005 RMK A01 T02810142  RH  042%=      5-min Rain = 0
KME1 161707Z 06010KT 28/14 A3005 RMK A01 T02820137  RH  041%=      5-min Rain = 0
KME1 161708Z 07012KT 28/14 A3005 RMK A01 T02810135  RH  041%=      5-min Rain = 0
KME1 161709Z 05010KT 28/14 A3004 RMK A01 T02810139  RH  042%=      5-min Rain = 0
KME1 161710Z 06010KT 28/14 A3004 RMK A01 T02830142  RH  042%=      5-min Rain = 0
KME1 161711Z 08007KT 29/14 A3004 RMK A01 T02850142  RH  042%=      5-min Rain = 0
KME1 161712Z 07008KT 29/14 A3004 RMK A01 T02870141  RH  041%=      5-min Rain = 0
KME1 161713Z 07008KT 29/14 A3004 RMK A01 T02880142  RH  041%=      5-min Rain = 0
KME1 161714Z 07009KT 29/14 A3004 RMK A01 T02880142  RH  041%=      5-min Rain = 0
KME1 161715Z 07009KT 29/14 A3004 RMK A01 T02890142  RH  041%=      5-min Rain = 0
KME1 161716Z 09009KT 29/14 A3004 RMK A01 T02900141  RH  040%=      5-min Rain = 0
KME1 161717Z 10011KT 29/14 A3004 RMK A01 T02900136  RH  039%=      5-min Rain = 0
KME1 161718Z 09009KT 29/14 A3004 RMK A01 T02890137  RH  039%=      5-min Rain = 0
KME1 161719Z 09009KT 29/14 A3004 RMK A01 T02890138  RH  040%=      5-min Rain = 0
KME1 161720Z 09009KT 29/14 A3004 RMK A01 T02900139  RH  040%=      5-min Rain = 0
KME1 161721Z 06012KT 29/14 A3004 RMK A01 T02910137  RH  039%=      5-min Rain = 0
KME1 161722Z 06010KT 29/14 A3004 RMK A01 T02910136  RH  038%=      5-min Rain = 0
KME1 161723Z 10010KT 29/14 A3004 RMK A01 T02900135  RH  039%=      5-min Rain = 0
KME1 161724Z 10009KT 29/14 A3004 RMK A01 T02890137  RH  039%=      5-min Rain = 0
KME1 161725Z 11011KT 29/14 A3004 RMK A01 T02910138  RH  039%=      5-min Rain = 0
KME1 161726Z 08011KT 29/14 A3004 RMK A01 T02920137  RH  039%=      5-min Rain = 0
KME1 161727Z 06009G16KT 29/13 A3004 RMK A01 T02900131  RH  037%=      5-min Rain = 0
KME1 161728Z 08009KT 29/14 A3004 RMK A01 T02890135  RH  039%=      5-min Rain = 0
KME1 161729Z 06012KT 29/13 A3004 RMK A01 T02890134  RH  039%=      5-min Rain = 0
KME1 161730Z 06014KT 29/13 A3004 RMK A01 T02890133  RH  038%=      5-min Rain = 0
KME1 161731Z 07010KT 29/13 A3004 RMK A01 T02890134  RH  039%=      5-min Rain = 0
KME1 161732Z 07009KT 29/14 A3004 RMK A01 T02900139  RH  040%=      5-min Rain = 0
KME1 161733Z 06012KT 29/14 A3004 RMK A01 T02940139  RH  039%=      5-min Rain = 0
KME1 161734Z 06010KT 29/14 A3004 RMK A01 T02940136  RH  038%=      5-min Rain = 0
KME1 161735Z 07014KT 29/13 A3004 RMK A01 T02930133  RH  037%=      5-min Rain = 0
KME1 161736Z 06011KT 29/13 A3004 RMK A01 T02900129  RH  037%=      5-min Rain = 0
KME1 161737Z 05012KT 29/13 A3003 RMK A01 T02890131  RH  038%=      5-min Rain = 0
KME1 161738Z 07013KT 29/14 A3004 RMK A01 T02900135  RH  039%=      5-min Rain = 0
KME1 161739Z 07009KT 29/14 A3004 RMK A01 T02900135  RH  039%=      5-min Rain = 0
KME1 161740Z 09009KT 29/14 A3004 RMK A01 T02910138  RH  039%=      5-min Rain = 0
KME1 161741Z 08010KT 29/14 A3003 RMK A01 T02920139  RH  039%=      5-min Rain = 0
KME1 161742Z 08012KT 29/14 A3004 RMK A01 T02920137  RH  038%=      5-min Rain = 0
KME1 161743Z 06009KT 29/14 A3003 RMK A01 T02910140  RH  039%=      5-min Rain = 0
KME1 161744Z 05009KT 29/14 A3003 RMK A01 T02920140  RH  039%=      5-min Rain = 0
KME1 161745Z 05011KT 29/14 A3003 RMK A01 T02920139  RH  039%=      5-min Rain = 0
KME1 161746Z 06007KT 29/14 A3003 RMK A01 T02930139  RH  039%=      5-min Rain = 0
KME1 161747Z 10008G14KT 29/14 A3003 RMK A01 T02930140  RH  039%=      5-min Rain = 0
KME1 161748Z 09010KT 29/14 A3003 RMK A01 T02930137  RH  038%=      5-min Rain = 0
KME1 161749Z 09008KT 29/14 A3003 RMK A01 T02910136  RH  038%=      5-min Rain = 0
KME1 161750Z 09007KT 29/14 A3003 RMK A01 T02910136  RH  039%=      5-min Rain = 0
KME1 161751Z 10008KT 29/14 A3003 RMK A01 T02910141  RH  040%=      5-min Rain = 0
KME1 161752Z 07008KT 30/14 A3003 RMK A01 T02950143  RH  040%=      5-min Rain = 0
KME1 161753Z 07007KT 30/14 A3003 RMK A01 T02960142  RH  039%=      5-min Rain = 0
KME1 161754Z 08009KT 30/14 A3003 RMK A01 T02960141  RH  039%=      5-min Rain = 0
KME1 161755Z 09007G13KT 30/14 A3003 RMK A01 T02960143  RH  039%=      5-min Rain = 0
KME1 161756Z 10008KT 30/14 A3003 RMK A01 T02960137  RH  038%=      5-min Rain = 0
KME1 161757Z 11005KT 30/14 A3003 RMK A01 T02950137  RH  038%=      5-min Rain = 0
KME1 161758Z 09004KT 29/14 A3003 RMK A01 T02940138  RH  038%=      5-min Rain = 0
KME1 161759Z 08006KT 30/14 A3003 RMK A01 T02960139  RH  038%=      5-min Rain = 0
KME1 161800Z 09009KT 30/14 A3003 RMK A01 T02960139  RH  038%=      5-min Rain = 0
KME1 161801Z 10008KT 30/14 A3003 RMK A01 T02960139  RH  038%=      5-min Rain = 0
KME1 161802Z 09007KT 30/14 A3003 RMK A01 T02960136  RH  038%=      5-min Rain = 0
KME1 161803Z 09009KT 30/14 A3003 RMK A01 T02950137  RH  038%=      5-min Rain = 0
KME1 161804Z 10010KT 30/14 A3003 RMK A01 T02960137  RH  038%=      5-min Rain = 0
KME1 161805Z 11006KT 30/14 A3002 RMK A01 T02950136  RH  038%=      5-min Rain = 0
KME1 161806Z 11006KT 30/14 A3002 RMK A01 T02950138  RH  038%=      5-min Rain = 0
KME1 161807Z 10006KT 30/14 A3002 RMK A01 T02960135  RH  037%=      5-min Rain = 0
KME1 161808Z 09006KT 30/14 A3002 RMK A01 T02950135  RH  037%=      5-min Rain = 0
KME1 161809Z 09008KT 30/14 A3002 RMK A01 T02960139  RH  038%=      5-min Rain = 0
KME1 161810Z 07006KT 30/14 A3002 RMK A01 T02970137  RH  038%=      5-min Rain = 0
KME1 161811Z 11006KT 30/14 A3002 RMK A01 T02970141  RH  039%=      5-min Rain = 0
KME1 161812Z 14007KT 30/14 A3002 RMK A01 T02980135  RH  037%=      5-min Rain = 0
KME1 161813Z 13005KT 30/14 A3002 RMK A01 T02990138  RH  037%=      5-min Rain = 0
KME1 161814Z 09008KT 30/14 A3002 RMK A01 T03000141  RH  038%=      5-min Rain = 0
KME1 161815Z 08006KT 30/14 A3002 RMK A01 T03010139  RH  037%=      5-min Rain = 0
KME1 161816Z 10008KT 30/14 A3002 RMK A01 T03010142  RH  038%=      5-min Rain = 0
KME1 161817Z 10008KT 30/14 A3002 RMK A01 T03020142  RH  038%=      5-min Rain = 0
KME1 161818Z 08008KT 30/14 A3002 RMK A01 T03020138  RH  037%=      5-min Rain = 0
KME1 161819Z 09006KT 30/14 A3002 RMK A01 T03000142  RH  038%=      5-min Rain = 0
KME1 161820Z 10007KT 30/14 A3002 RMK A01 T03010139  RH  037%=      5-min Rain = 0
KME1 161821Z 11008KT 30/14 A3002 RMK A01 T03010138  RH  037%=      5-min Rain = 0
KME1 161822Z 09007KT 30/14 A3001 RMK A01 T03000138  RH  037%=      5-min Rain = 0
KME1 161823Z 08010KT 30/14 A3002 RMK A01 T03000140  RH  038%=      5-min Rain = 0
KME1 161824Z 09007KT 30/14 A3001 RMK A01 T03010137  RH  037%=      5-min Rain = 0
KME1 161825Z 08008KT 30/14 A3001 RMK A01 T03010141  RH  038%=      5-min Rain = 0
KME1 161826Z 09006KT 30/14 A3001 RMK A01 T03020139  RH  037%=      5-min Rain = 0
KME1 161827Z 06008KT 30/14 A3001 RMK A01 T03020141  RH  038%=      5-min Rain = 0
KME1 161828Z 06008KT 30/14 A3001 RMK A01 T03020142  RH  038%=      5-min Rain = 0
KME1 161829Z 08003KT 30/14 A3001 RMK A01 T03010143  RH  038%=      5-min Rain = 0
KME1 161830Z 11008KT 30/15 A3001 RMK A01 T03030147  RH  039%=      5-min Rain = 0
KME1 161831Z 13010KT 31/14 A3001 RMK A01 T03050142  RH  037%=      5-min Rain = 0
KME1 161832Z 13008KT 31/14 A3001 RMK A01 T03050141  RH  037%=      5-min Rain = 0
KME1 161833Z 13007KT 31/14 A3001 RMK A01 T03050142  RH  037%=      5-min Rain = 0
KME1 161834Z 10005KT 31/14 A3001 RMK A01 T03050141  RH  037%=      5-min Rain = 0
KME1 161835Z 09007KT 31/14 A3001 RMK A01 T03050140  RH  037%=      5-min Rain = 0
KME1 161836Z 09005KT 30/14 A3001 RMK A01 T03030138  RH  036%=      5-min Rain = 0
KME1 161837Z 10006KT 30/14 A3001 RMK A01 T03020138  RH  037%=      5-min Rain = 0
KME1 161838Z 11007KT 30/14 A3001 RMK A01 T03010142  RH  038%=      5-min Rain = 0
KME1 161839Z 10008KT 30/14 A3001 RMK A01 T03040142  RH  037%=      5-min Rain = 0
KME1 161840Z 13008KT 31/15 A3001 RMK A01 T03050145  RH  038%=      5-min Rain = 0
KME1 161841Z 13007KT 31/14 A30 RMK A01 T03060141  RH  037%=      5-min Rain = 0
KME1 161842Z 12006KT 31/14 A30 RMK A01 T03060142  RH  037%=      5-min Rain = 0
KME1 161843Z 09008KT 31/15 A30 RMK A01 T03060147  RH  038%=      5-min Rain = 0
KME1 161844Z 11009KT 31/15 A30 RMK A01 T03060145  RH  037%=      5-min Rain = 0
KME1 161845Z 13008KT 31/15 A30 RMK A01 T03070146  RH  038%=      5-min Rain = 0
KME1 161846Z 12007KT 31/14 A30 RMK A01 T03080143  RH  037%=      5-min Rain = 0
KME1 161847Z 11008KT 31/14 A30 RMK A01 T03070142  RH  037%=      5-min Rain = 0
KME1 161848Z 10006KT 31/14 A30 RMK A01 T03070138  RH  036%=      5-min Rain = 0
KME1 161849Z 10008KT 31/14 A30 RMK A01 T03050140  RH  037%=      5-min Rain = 0
KME1 161850Z 10009KT 31/14 A30 RMK A01 T03050140  RH  037%=      5-min Rain = 0
KME1 161851Z 12008KT 31/14 A30 RMK A01 T03050143  RH  037%=      5-min Rain = 0
KME1 161852Z 11006KT 31/15 A30 RMK A01 T03050145  RH  038%=      5-min Rain = 0
KME1 161853Z 13007KT 31/15 A30 RMK A01 T03070145  RH  037%=      5-min Rain = 0
KME1 161854Z 12010KT 31/15 A30 RMK A01 T03090145  RH  037%=      5-min Rain = 0
KME1 161855Z 11006KT 31/14 A30 RMK A01 T03090141  RH  036%=      5-min Rain = 0
KME1 161856Z 12005KT 31/14 A30 RMK A01 T03080143  RH  037%=      5-min Rain = 0
KME1 161857Z 11008G14KT 31/15 A30 RMK A01 T03070145  RH  037%=      5-min Rain = 0
KME1 161858Z 09011KT 31/15 A30 RMK A01 T03080145  RH  037%=      5-min Rain = 0
KME1 161859Z 08010KT 31/15 A30 RMK A01 T03070146  RH  038%=      5-min Rain = 0
KME1 161900Z 10011KT 31/15 A30 RMK A01 T03080147  RH  038%=      5-min Rain = 0
KME1 161901Z 11010KT 31/14 A2999 RMK A01 T03080144  RH  037%=      5-min Rain = 0
KME1 161902Z 11010KT 31/14 A2999 RMK A01 T03080144  RH  037%=      5-min Rain = 0
KME1 161903Z 10009KT 31/14 A2999 RMK A01 T03070142  RH  037%=      5-min Rain = 0
KME1 161904Z 10008KT 31/14 A2999 RMK A01 T03060143  RH  037%=      5-min Rain = 0
KME1 161905Z 12010KT 31/15 A2999 RMK A01 T03060146  RH  038%=      5-min Rain = 0
KME1 161906Z 13010KT 31/14 A2999 RMK A01 T03070142  RH  037%=      5-min Rain = 0
KME1 161907Z 15006KT 31/14 A2999 RMK A01 T03060143  RH  037%=      5-min Rain = 0
KME1 161908Z 12006KT 31/15 A2999 RMK A01 T03050148  RH  038%=      5-min Rain = 0
KME1 161909Z 10008KT 31/15 A2999 RMK A01 T03080150  RH  038%=      5-min Rain = 0
KME1 161910Z 11009KT 31/15 A2999 RMK A01 T03090146  RH  037%=      5-min Rain = 0
KME1 161911Z 09006KT 31/15 A2999 RMK A01 T03100149  RH  038%=      5-min Rain = 0
KME1 161912Z 09005KT 31/15 A2998 RMK A01 T03100146  RH  037%=      5-min Rain = 0
KME1 161913Z 08004KT 31/15 A2998 RMK A01 T03100151  RH  038%=      5-min Rain = 0
KME1 161914Z 10007KT 31/15 A2998 RMK A01 T03120151  RH  038%=      5-min Rain = 0
KME1 161915Z 10010KT 31/15 A2998 RMK A01 T03130147  RH  037%=      5-min Rain = 0
KME1 161916Z 10009KT 31/15 A2998 RMK A01 T03110149  RH  038%=      5-min Rain = 0
KME1 161917Z 09009KT 31/15 A2998 RMK A01 T03110149  RH  038%=      5-min Rain = 0
KME1 161918Z 09010KT 31/15 A2998 RMK A01 T03100148  RH  037%=      5-min Rain = 0
KME1 161919Z 10009KT 31/15 A2998 RMK A01 T03100148  RH  037%=      5-min Rain = 0
KME1 161920Z 09006KT 31/15 A2998 RMK A01 T03110152  RH  038%=      5-min Rain = 0
KME1 161921Z 11006KT 31/15 A2998 RMK A01 T03120149  RH  037%=      5-min Rain = 0
KME1 161922Z 08007KT 31/15 A2998 RMK A01 T03130152  RH  038%=      5-min Rain = 0
KME1 161923Z 09006KT 31/15 A2998 RMK A01 T03140151  RH  038%=      5-min Rain = 0
KME1 161924Z 08009KT 31/15 A2998 RMK A01 T03140152  RH  038%=      5-min Rain = 0
KME1 161925Z 10010KT 31/15 A2998 RMK A01 T03140153  RH  038%=      5-min Rain = 0
KME1 161926Z 10009KT 32/15 A2999 RMK A01 T03150152  RH  037%=      5-min Rain = 0
KME1 161927Z 11007KT 32/15 A2999 RMK A01 T03160148  RH  036%=      5-min Rain = 0
KME1 161928Z 12005KT 31/15 A2998 RMK A01 T03140147  RH  036%=      5-min Rain = 0
KME1 161929Z 13003KT 31/15 A2998 RMK A01 T03140147  RH  036%=      5-min Rain = 0
KME1 161930Z 07005G10KT 31/15 A2998 RMK A01 T03130147  RH  036%=      5-min Rain = 0
KME1 161931Z 08008G14KT 31/15 A2998 RMK A01 T03130151  RH  038%=      5-min Rain = 0
KME1 161932Z 10010KT 31/15 A2998 RMK A01 T03130151  RH  037%=      5-min Rain = 0
KME1 161933Z 11009KT 31/15 A2998 RMK A01 T03140149  RH  037%=      5-min Rain = 0
KME1 161934Z 12007KT 31/15 A2998 RMK A01 T03130148  RH  037%=      5-min Rain = 0
KME1 161935Z 11007KT 31/15 A2998 RMK A01 T03120149  RH  037%=      5-min Rain = 0
KME1 161936Z 08005KT 32/15 A2998 RMK A01 T03150154  RH  038%=      5-min Rain = 0
KME1 161937Z 09007KT 32/16 A2998 RMK A01 T03170155  RH  037%=      5-min Rain = 0
KME1 161938Z 12005KT 32/15 A2998 RMK A01 T03180148  RH  036%=      5-min Rain = 0
KME1 161939Z 09006KT 32/15 A2998 RMK A01 T03170152  RH  037%=      5-min Rain = 0
KME1 161940Z 09009KT 32/15 A2998 RMK A01 T03170151  RH  037%=      5-min Rain = 0
KME1 161941Z 09008KT 32/15 A2998 RMK A01 T03170154  RH  037%=      5-min Rain = 0
KME1 161942Z 08006KT 32/15 A2998 RMK A01 T03190150  RH  036%=      5-min Rain = 0
KME1 161943Z 08005KT 32/15 A2997 RMK A01 T03190153  RH  037%=      5-min Rain = 0
KME1 161944Z 10010KT 32/16 A2997 RMK A01 T03210156  RH  037%=      5-min Rain = 0
KME1 161945Z 11008KT 32/15 A2997 RMK A01 T03230150  RH  035%=      5-min Rain = 0
KME1 161946Z 10006KT 32/15 A2997 RMK A01 T03190149  RH  036%=      5-min Rain = 0
KME1 161947Z 10006KT 32/16 A2997 RMK A01 T03190155  RH  037%=      5-min Rain = 0
KME1 161948Z 09008KT 32/15 A2997 RMK A01 T03210154  RH  036%=      5-min Rain = 0
KME1 161949Z 11009KT 32/16 A2997 RMK A01 T03220155  RH  037%=      5-min Rain = 0
KME1 161950Z 11007KT 32/15 A2997 RMK A01 T03230153  RH  036%=      5-min Rain = 0
KME1 161951Z 09005KT 32/15 A2997 RMK A01 T03220149  RH  035%=      5-min Rain = 0
KME1 161952Z 10008KT 32/15 A2997 RMK A01 T03210154  RH  037%=      5-min Rain = 0
KME1 161953Z 08009KT 32/16 A2997 RMK A01 T03220155  RH  037%=      5-min Rain = 0
KME1 161954Z 09006KT 32/16 A2997 RMK A01 T03230155  RH  036%=      5-min Rain = 0
KME1 161955Z 09007KT 32/15 A2997 RMK A01 T03240154  RH  036%=      5-min Rain = 0
KME1 161956Z 10005KT 32/15 A2997 RMK A01 T03240150  RH  035%=      5-min Rain = 0
KME1 161957Z 09008KT 32/15 A2997 RMK A01 T03240152  RH  035%=      5-min Rain = 0
KME1 161958Z 09008KT 32/15 A2997 RMK A01 T03240149  RH  035%=      5-min Rain = 0
KME1 161959Z 09010KT 32/15 A2997 RMK A01 T03240149  RH  035%=      5-min Rain = 0
KME1 162000Z 09006KT 32/15 A2996 RMK A01 T03240151  RH  035%=      5-min Rain = 0
KME1 162001Z 10009KT 33/15 A2996 RMK A01 T03260151  RH  035%=      5-min Rain = 0
KME1 162002Z 09007KT 33/15 A2996 RMK A01 T03270147  RH  034%=      5-min Rain = 0
KME1 162003Z 09007KT 33/15 A2996 RMK A01 T03250146  RH  034%=      5-min Rain = 0
KME1 162004Z 09007KT 33/15 A2996 RMK A01 T03250150  RH  035%=      5-min Rain = 0
KME1 162005Z 10007KT 33/15 A2996 RMK A01 T03260148  RH  034%=      5-min Rain = 0
KME1 162006Z 13008KT 33/15 A2996 RMK A01 T03270149  RH  034%=      5-min Rain = 0
KME1 162007Z 12012KT 33/15 A2996 RMK A01 T03270153  RH  035%=      5-min Rain = 0
KME1 162008Z 09011KT 33/15 A2996 RMK A01 T03270152  RH  035%=      5-min Rain = 0
KME1 162009Z 09010KT 33/15 A2996 RMK A01 T03260154  RH  035%=      5-min Rain = 0
KME1 162010Z 09007G12KT 33/15 A2996 RMK A01 T03270152  RH  035%=      5-min Rain = 0
KME1 162011Z 10007KT 33/15 A2996 RMK A01 T03270149  RH  034%=      5-min Rain = 0
KME1 162012Z 12006KT 33/15 A2995 RMK A01 T03260151  RH  035%=      5-min Rain = 0
KME1 162013Z 09009KT 33/15 A2996 RMK A01 T03270153  RH  035%=      5-min Rain = 0
KME1 162014Z 12009KT 33/15 A2995 RMK A01 T03280150  RH  034%=      5-min Rain = 0
KME1 162015Z 14011KT 33/15 A2995 RMK A01 T03280149  RH  034%=      5-min Rain = 0
KME1 162016Z 13009KT 33/15 A2995 RMK A01 T03280147  RH  034%=      5-min Rain = 0
KME1 162017Z 14005KT 33/15 A2995 RMK A01 T03280146  RH  033%=      5-min Rain = 0
KME1 162018Z 11008KT 33/15 A2995 RMK A01 T03290150  RH  034%=      5-min Rain = 0
KME1 162019Z 14007KT 33/15 A2995 RMK A01 T03290146  RH  033%=      5-min Rain = 0
KME1 162020Z 11004KT 33/15 A2995 RMK A01 T03290149  RH  034%=      5-min Rain = 0
KME1 162021Z 09004KT 33/15 A2995 RMK A01 T03310153  RH  034%=      5-min Rain = 0
KME1 162022Z 10006KT 33/15 A2995 RMK A01 T03330151  RH  034%=      5-min Rain = 0
KME1 162023Z 09008KT 33/15 A2995 RMK A01 T03340150  RH  033%=      5-min Rain = 0
KME1 162024Z 08005KT 33/14 A2995 RMK A01 T03300140  RH  032%=      5-min Rain = 0
KME1 162025Z 12005KT 33/15 A2995 RMK A01 T03270146  RH  033%=      5-min Rain = 0
KME1 162026Z 09007KT 33/15 A2995 RMK A01 T03290152  RH  035%=      5-min Rain = 0
KME1 162027Z 09010KT 33/15 A2995 RMK A01 T03310149  RH  033%=      5-min Rain = 0
KME1 162028Z 10009KT 33/15 A2995 RMK A01 T03310149  RH  034%=      5-min Rain = 0
KME1 162029Z 12008KT 33/15 A2995 RMK A01 T03320150  RH  034%=      5-min Rain = 0
KME1 162030Z 11008KT 33/15 A2995 RMK A01 T03330152  RH  034%=      5-min Rain = 0
KME1 162031Z 10007KT 33/15 A2995 RMK A01 T03330148  RH  033%=      5-min Rain = 0
KME1 162032Z 08007KT 33/15 A2995 RMK A01 T03330150  RH  033%=      5-min Rain = 0
KME1 162033Z 07007KT 33/15 A2995 RMK A01 T03330150  RH  033%=      5-min Rain = 0
KME1 162034Z 08011KT 33/15 A2995 RMK A01 T03330151  RH  033%=      5-min Rain = 0
KME1 162035Z 10012KT 33/15 A2994 RMK A01 T03320146  RH  033%=      5-min Rain = 0
KME1 162036Z 09012KT 33/15 A2994 RMK A01 T03310147  RH  033%=      5-min Rain = 0
KME1 162037Z 09010KT 33/15 A2994 RMK A01 T03290147  RH  033%=      5-min Rain = 0
KME1 162038Z 08011KT 33/15 A2994 RMK A01 T03300148  RH  033%=      5-min Rain = 0
KME1 162039Z 08008KT 33/15 A2994 RMK A01 T03300148  RH  033%=      5-min Rain = 0
KME1 162040Z 09011KT 33/15 A2994 RMK A01 T03310151  RH  034%=      5-min Rain = 0
KME1 162041Z 09010KT 33/15 A2994 RMK A01 T03310148  RH  033%=      5-min Rain = 0
KME1 162042Z 10008KT 33/15 A2994 RMK A01 T03300150  RH  034%=      5-min Rain = 0
KME1 162043Z 09008G13KT 33/15 A2994 RMK A01 T03310149  RH  034%=      5-min Rain = 0
KME1 162044Z 10007KT 33/15 A2994 RMK A01 T03320147  RH  033%=      5-min Rain = 0
KME1 162045Z 11007KT 33/15 A2994 RMK A01 T03330151  RH  034%=      5-min Rain = 0
KME1 162046Z 10008KT 34/16 A2994 RMK A01 T03350158  RH  035%=      5-min Rain = 0
KME1 162047Z 09006KT 34/16 A2994 RMK A01 T03390160  RH  034%=      5-min Rain = 0
KME1 162048Z 09006KT 34/16 A2994 RMK A01 T03410160  RH  034%=      5-min Rain = 0
KME1 162049Z 08006KT 34/15 A2994 RMK A01 T03430154  RH  032%=      5-min Rain = 0
KME1 162050Z 08009KT 34/15 A2994 RMK A01 T03400152  RH  032%=      5-min Rain = 0
KME1 162051Z 08010KT 34/15 A2994 RMK A01 T03370149  RH  032%=      5-min Rain = 0
KME1 162052Z 09009KT 33/15 A2994 RMK A01 T03340149  RH  033%=      5-min Rain = 0
KME1 162053Z 07009KT 33/15 A2994 RMK A01 T03340152  RH  033%=      5-min Rain = 0
KME1 162054Z 08006KT 34/15 A2994 RMK A01 T03350150  RH  033%=      5-min Rain = 0
KME1 162055Z 08007KT 34/15 A2994 RMK A01 T03350152  RH  033%=      5-min Rain = 0
KME1 162056Z 10006KT 34/15 A2994 RMK A01 T03360150  RH  033%=      5-min Rain = 0
KME1 162057Z 08009KT 34/15 A2994 RMK A01 T03370151  RH  033%=      5-min Rain = 0
KME1 162058Z 09009KT 34/15 A2994 RMK A01 T03370153  RH  033%=      5-min Rain = 0
KME1 162059Z 08008KT 34/16 A2994 RMK A01 T03390155  RH  033%=      5-min Rain = 0
KME1 162100Z 07008KT 34/15 A2994 RMK A01 T03420153  RH  032%=      5-min Rain = 0
KME1 162101Z 08006KT 34/15 A2993 RMK A01 T03410148  RH  032%=      5-min Rain = 0
KME1 162102Z 07009KT 34/15 A2993 RMK A01 T03390150  RH  032%=      5-min Rain = 0
KME1 162103Z 10010KT 34/15 A2993 RMK A01 T03380150  RH  032%=      5-min Rain = 0
KME1 162104Z 07009KT 34/15 A2993 RMK A01 T03370153  RH  033%=      5-min Rain = 0
KME1 162105Z 09011KT 34/15 A2993 RMK A01 T03380153  RH  033%=      5-min Rain = 0
KME1 162106Z 09007KT 34/15 A2993 RMK A01 T03380153  RH  033%=      5-min Rain = 0
KME1 162107Z 10008KT 34/15 A2993 RMK A01 T03380150  RH  032%=      5-min Rain = 0
KME1 162108Z 07008KT 34/16 A2993 RMK A01 T03380155  RH  033%=      5-min Rain = 0
KME1 162109Z 07009KT 34/15 A2993 RMK A01 T03390152  RH  033%=      5-min Rain = 0
KME1 162110Z 08008KT 34/15 A2993 RMK A01 T03390153  RH  033%=      5-min Rain = 0
KME1 162111Z 12007KT 34/15 A2993 RMK A01 T03410152  RH  032%=      5-min Rain = 0
KME1 162112Z 10005G13KT 34/16 A2993 RMK A01 T03420155  RH  033%=      5-min Rain = 0
KME1 162113Z 10009KT 34/15 A2993 RMK A01 T03430149  RH  031%=      5-min Rain = 0
KME1 162114Z 08007KT 34/15 A2993 RMK A01 T03410150  RH  032%=      5-min Rain = 0
KME1 162115Z 11006KT 34/15 A2993 RMK A01 T03410149  RH  032%=      5-min Rain = 0
KME1 162116Z 09004KT 34/15 A2993 RMK A01 T03420151  RH  032%=      5-min Rain = 0
KME1 162117Z 07007KT 34/15 A2993 RMK A01 T03440150  RH  031%=      5-min Rain = 0
KME1 162118Z 08006KT 35/15 A2993 RMK A01 T03450145  RH  030%=      5-min Rain = 0
KME1 162119Z 09006KT 35/15 A2993 RMK A01 T03450148  RH  031%=      5-min Rain = 0
KME1 162120Z 09009KT 35/15 A2993 RMK A01 T03450151  RH  031%=      5-min Rain = 0
KME1 162121Z 08009KT 34/15 A2993 RMK A01 T03440147  RH  031%=      5-min Rain = 0
KME1 162122Z 10007KT 34/14 A2993 RMK A01 T03410144  RH  031%=      5-min Rain = 0
KME1 162123Z 09009G14KT 34/15 A2993 RMK A01 T03400147  RH  031%=      5-min Rain = 0
KME1 162124Z 08010KT 34/15 A2993 RMK A01 T03380149  RH  032%=      5-min Rain = 0
KME1 162125Z 09008KT 34/15 A2993 RMK A01 T03380150  RH  032%=      5-min Rain = 0
KME1 162126Z 09009KT 34/15 A2993 RMK A01 T03390151  RH  032%=      5-min Rain = 0
KME1 162127Z 08010KT 34/15 A2993 RMK A01 T03400151  RH  032%=      5-min Rain = 0
KME1 162128Z 08010KT 34/15 A2992 RMK A01 T03390148  RH  032%=      5-min Rain = 0
KME1 162129Z 09009KT 34/15 A2992 RMK A01 T03370147  RH  032%=      5-min Rain = 0
KME1 162130Z 06005KT 34/15 A2992 RMK A01 T03370151  RH  033%=      5-min Rain = 0
KME1 162131Z 06012KT 34/15 A2992 RMK A01 T03400151  RH  032%=      5-min Rain = 0
KME1 162132Z 07011KT 34/15 A2992 RMK A01 T03410148  RH  031%=      5-min Rain = 0
KME1 162133Z 08010KT 34/15 A2992 RMK A01 T03400147  RH  031%=      5-min Rain = 0
KME1 162134Z 08008KT 34/15 A2992 RMK A01 T03390147  RH  031%=      5-min Rain = 0
KME1 162135Z 10008KT 34/15 A2992 RMK A01 T03400150  RH  032%=      5-min Rain = 0
KME1 162136Z 08008KT 34/15 A2992 RMK A01 T03420151  RH  032%=      5-min Rain = 0
KME1 162137Z 08006KT 34/15 A2992 RMK A01 T03430150  RH  031%=      5-min Rain = 0
KME1 162138Z 08009KT 34/15 A2992 RMK A01 T03440154  RH  032%=      5-min Rain = 0
KME1 162139Z 08012KT 34/15 A2992 RMK A01 T03440151  RH  031%=      5-min Rain = 0
KME1 162140Z 08010KT 34/15 A2992 RMK A01 T03410147  RH  031%=      5-min Rain = 0
KME1 162141Z 08009KT 34/15 A2992 RMK A01 T03380146  RH  032%=      5-min Rain = 0
KME1 162142Z 06006KT 34/15 A2992 RMK A01 T03370149  RH  032%=      5-min Rain = 0
KME1 162143Z 05009KT 34/15 A2992 RMK A01 T03380151  RH  032%=      5-min Rain = 0
KME1 162144Z 06011KT 34/15 A2992 RMK A01 T03400148  RH  032%=      5-min Rain = 0
KME1 162145Z 06011KT 34/15 A2992 RMK A01 T03400153  RH  033%=      5-min Rain = 0
KME1 162146Z 08010KT 34/15 A2992 RMK A01 T03430148  RH  031%=      5-min Rain = 0
KME1 162147Z 08009KT 34/15 A2992 RMK A01 T03420148  RH  031%=      5-min Rain = 0
KME1 162148Z 09011KT 34/14 A2992 RMK A01 T03420143  RH  030%=      5-min Rain = 0
KME1 162149Z 08007KT 34/14 A2991 RMK A01 T03400142  RH  030%=      5-min Rain = 0
KME1 162150Z 07008KT 34/15 A2991 RMK A01 T03410145  RH  031%=      5-min Rain = 0
KME1 162151Z 08008KT 34/14 A2991 RMK A01 T03410141  RH  030%=      5-min Rain = 0
KME1 162152Z 07008KT 34/15 A2991 RMK A01 T03410145  RH  031%=      5-min Rain = 0
KME1 162153Z 06009KT 34/15 A2991 RMK A01 T03420153  RH  032%=      5-min Rain = 0
KME1 162154Z 05012KT 34/16 A2991 RMK A01 T03430158  RH  033%=      5-min Rain = 0
KME1 162155Z 06011KT 34/16 A2991 RMK A01 T03420160  RH  034%=      5-min Rain = 0
KME1 162156Z 08009KT 34/16 A2991 RMK A01 T03410159  RH  034%=      5-min Rain = 0
KME1 162157Z 07012KT 34/15 A2991 RMK A01 T03420154  RH  032%=      5-min Rain = 0
KME1 162158Z 07009G14KT 34/15 A2991 RMK A01 T03410147  RH  031%=      5-min Rain = 0
KME1 162159Z 06011KT 34/15 A2991 RMK A01 T03390148  RH  032%=      5-min Rain = 0
KME1 162200Z 05009KT 34/15 A2991 RMK A01 T03390151  RH  032%=      5-min Rain = 0
KME1 162201Z 06010KT 34/15 A2991 RMK A01 T03390152  RH  033%=      5-min Rain = 0
KME1 162202Z 07011KT 34/15 A2991 RMK A01 T03390151  RH  032%=      5-min Rain = 0
KME1 162203Z 07007G12KT 34/15 A2991 RMK A01 T03390154  RH  033%=      5-min Rain = 0
KME1 162204Z 05012KT 34/16 A2991 RMK A01 T03390159  RH  034%=      5-min Rain = 0
KME1 162205Z 05010KT 34/16 A2991 RMK A01 T03380161  RH  035%=      5-min Rain = 0
KME1 162206Z 05010KT 34/16 A2991 RMK A01 T03360164  RH  036%=      5-min Rain = 0
KME1 162207Z 05010KT 34/16 A2991 RMK A01 T03360164  RH  036%=      5-min Rain = 0
KME1 162208Z 03008KT 34/17 A2991 RMK A01 T03350167  RH  037%=      5-min Rain = 0
KME1 162209Z 05012KT 34/17 A2991 RMK A01 T03360168  RH  037%=      5-min Rain = 0
KME1 162210Z 05011KT 34/17 A2991 RMK A01 T03370167  RH  036%=      5-min Rain = 0
KME1 162211Z 07009KT 33/17 A2991 RMK A01 T03340167  RH  037%=      5-min Rain = 0
KME1 162212Z 06012KT 33/17 A2991 RMK A01 T03340168  RH  037%=      5-min Rain = 0
KME1 162213Z 06013KT 33/17 A2991 RMK A01 T03330166  RH  037%=      5-min Rain = 0
KME1 162214Z 05012KT 33/16 A2991 RMK A01 T03310164  RH  037%=      5-min Rain = 0
KME1 162215Z 04011KT 33/16 A2991 RMK A01 T03290163  RH  037%=      5-min Rain = 0
KME1 162216Z 05009KT 33/17 A299 RMK A01 T03280167  RH  038%=      5-min Rain = 0
KME1 162217Z 05011KT 33/17 A299 RMK A01 T03320167  RH  037%=      5-min Rain = 0
KME1 162218Z 04009KT 33/17 A299 RMK A01 T03320166  RH  037%=      5-min Rain = 0
KME1 162219Z 06008KT 33/17 A299 RMK A01 T03320166  RH  037%=      5-min Rain = 0
KME1 162220Z 05008KT 33/17 A299 RMK A01 T03340169  RH  038%=      5-min Rain = 0
KME1 162221Z 04008KT 34/17 A299 RMK A01 T03350169  RH  037%=      5-min Rain = 0
KME1 162222Z 06009KT 34/17 A299 RMK A01 T03360170  RH  037%=      5-min Rain = 0
KME1 162223Z 06010KT 34/17 A299 RMK A01 T03360171  RH  037%=      5-min Rain = 0
KME1 162224Z 06012KT 34/17 A299 RMK A01 T03360165  RH  036%=      5-min Rain = 0
KME1 162225Z 06014KT 33/16 A299 RMK A01 T03340163  RH  036%=      5-min Rain = 0
KME1 162226Z 06013KT 33/16 A299 RMK A01 T03310162  RH  036%=      5-min Rain = 0
KME1 162227Z 05011KT 33/16 A299 RMK A01 T03290162  RH  037%=      5-min Rain = 0
KME1 162228Z 06011KT 33/16 A299 RMK A01 T03280163  RH  037%=      5-min Rain = 0
KME1 162229Z 05011KT 33/17 A299 RMK A01 T03280166  RH  038%=      5-min Rain = 0
KME1 162230Z 04012KT 33/17 A299 RMK A01 T03290166  RH  038%=      5-min Rain = 0
KME1 162231Z 06012KT 33/16 A299 RMK A01 T03290164  RH  037%=      5-min Rain = 0
KME1 162232Z 06012KT 33/16 A299 RMK A01 T03280164  RH  037%=      5-min Rain = 0
KME1 162233Z 07011G16KT 33/17 A299 RMK A01 T03270165  RH  038%=      5-min Rain = 0
KME1 162234Z 08012KT 33/16 A299 RMK A01 T03280163  RH  037%=      5-min Rain = 0
KME1 162235Z 08010G15KT 33/16 A299 RMK A01 T03290164  RH  037%=      5-min Rain = 0
KME1 162236Z 07011KT 33/16 A299 RMK A01 T03290162  RH  037%=      5-min Rain = 0
KME1 162237Z 06010KT 33/17 A299 RMK A01 T03280165  RH  038%=      5-min Rain = 0
KME1 162238Z 06011KT 33/16 A299 RMK A01 T03280163  RH  037%=      5-min Rain = 0
KME1 162239Z 07008KT 33/16 A299 RMK A01 T03280163  RH  037%=      5-min Rain = 0
KME1 162240Z 06009KT 33/16 A299 RMK A01 T03280163  RH  037%=      5-min Rain = 0
KME1 162241Z 07007KT 33/17 A299 RMK A01 T03290166  RH  038%=      5-min Rain = 0
KME1 162242Z 08013KT 33/16 A299 RMK A01 T03310164  RH  037%=      5-min Rain = 0
KME1 162243Z 08010KT 33/16 A299 RMK A01 T03290159  RH  036%=      5-min Rain = 0
KME1 162244Z 06011KT 33/16 A299 RMK A01 T03270162  RH  037%=      5-min Rain = 0
KME1 162245Z 07014KT 33/16 A299 RMK A01 T03270161  RH  037%=      5-min Rain = 0
KME1 162246Z 06009KT 33/16 A299 RMK A01 T03250160  RH  037%=      5-min Rain = 0
KME1 162247Z 06011KT 32/16 A299 RMK A01 T03240162  RH  038%=      5-min Rain = 0
KME1 162248Z 08011KT 32/16 A2989 RMK A01 T03240161  RH  037%=      5-min Rain = 0
KME1 162249Z 08012KT 33/16 A2989 RMK A01 T03250161  RH  037%=      5-min Rain = 0
KME1 162250Z 08011G16KT 33/16 A2989 RMK A01 T03260160  RH  037%=      5-min Rain = 0
KME1 162251Z 06013KT 33/16 A2989 RMK A01 T03260160  RH  037%=      5-min Rain = 0
KME1 162252Z 06013KT 33/16 A2989 RMK A01 T03270160  RH  037%=      5-min Rain = 0
KME1 162253Z 06012KT 33/16 A2989 RMK A01 T03270161  RH  037%=      5-min Rain = 0
KME1 162254Z 06013KT 33/16 A2989 RMK A01 T03270160  RH  037%=      5-min Rain = 0
KME1 162255Z 07012KT 33/16 A2989 RMK A01 T03270161  RH  037%=      5-min Rain = 0
KME1 162256Z 07010KT 33/16 A2989 RMK A01 T03270160  RH  037%=      5-min Rain = 0
KME1 162257Z 08011KT 33/16 A2989 RMK A01 T03280158  RH  036%=      5-min Rain = 0
KME1 162258Z 08015KT 33/16 A2989 RMK A01 T03280157  RH  036%=      5-min Rain = 0
KME1 162259Z 08012G17KT 33/16 A2989 RMK A01 T03260157  RH  036%=      5-min Rain = 0
KME1 162300Z 08010KT 33/16 A2989 RMK A01 T03260162  RH  037%=      5-min Rain = 0
KME1 162301Z 07011KT 33/16 A2989 RMK A01 T03270160  RH  037%=      5-min Rain = 0
KME1 162302Z 07012KT 33/16 A2989 RMK A01 T03270162  RH  037%=      5-min Rain = 0
KME1 162303Z 07011KT 33/16 A2989 RMK A01 T03270162  RH  037%=      5-min Rain = 0
KME1 162304Z 07013KT 33/16 A2989 RMK A01 T03280161  RH  037%=      5-min Rain = 0
KME1 162305Z 08013KT 33/16 A2989 RMK A01 T03280158  RH  036%=      5-min Rain = 0
KME1 162306Z 07012KT 33/16 A2989 RMK A01 T03260158  RH  036%=      5-min Rain = 0
KME1 162307Z 06007KT 33/16 A2989 RMK A01 T03260160  RH  037%=      5-min Rain = 0
KME1 162308Z 07012KT 33/16 A2989 RMK A01 T03260161  RH  037%=      5-min Rain = 0
KME1 162309Z 06008KT 33/16 A2989 RMK A01 T03270160  RH  037%=      5-min Rain = 0
KME1 162310Z 07010KT 33/16 A2989 RMK A01 T03280161  RH  037%=      5-min Rain = 0
KME1 162311Z 08012KT 33/16 A2989 RMK A01 T03280161  RH  037%=      5-min Rain = 0
KME1 162312Z 08011KT 33/16 A2989 RMK A01 T03280159  RH  036%=      5-min Rain = 0
KME1 162313Z 07013KT 33/16 A2989 RMK A01 T03250156  RH  036%=      5-min Rain = 0
KME1 162314Z 08010KT 32/16 A2989 RMK A01 T03240159  RH  037%=      5-min Rain = 0
KME1 162315Z 07008KT 32/16 A2989 RMK A01 T03240162  RH  038%=      5-min Rain = 0
KME1 162316Z 05010KT 33/16 A2988 RMK A01 T03260163  RH  038%=      5-min Rain = 0
KME1 162317Z 06011G16KT 33/16 A2988 RMK A01 T03260161  RH  037%=      5-min Rain = 0
KME1 162318Z 05009KT 33/16 A2988 RMK A01 T03260162  RH  037%=      5-min Rain = 0
KME1 162319Z 06011KT 33/16 A2988 RMK A01 T03260163  RH  038%=      5-min Rain = 0
KME1 162320Z 06011KT 33/16 A2988 RMK A01 T03270162  RH  037%=      5-min Rain = 0
KME1 162321Z 06011KT 33/16 A2988 RMK A01 T03260162  RH  037%=      5-min Rain = 0
KME1 162322Z 06012KT 33/16 A2988 RMK A01 T03260163  RH  038%=      5-min Rain = 0
KME1 162323Z 06010KT 33/16 A2988 RMK A01 T03250161  RH  037%=      5-min Rain = 0
KME1 162324Z 07009KT 32/16 A2988 RMK A01 T03240162  RH  038%=      5-min Rain = 0
KME1 162325Z 06011KT 33/16 A2988 RMK A01 T03250160  RH  037%=      5-min Rain = 0
KME1 162326Z 07010G15KT 33/16 A2988 RMK A01 T03250160  RH  037%=      5-min Rain = 0
KME1 162327Z 07010KT 33/16 A2988 RMK A01 T03250160  RH  037%=      5-min Rain = 0
KME1 162328Z 07007KT 33/16 A2988 RMK A01 T03260160  RH  037%=      5-min Rain = 0
KME1 162329Z 07007KT 33/16 A2988 RMK A01 T03270164  RH  038%=      5-min Rain = 0
KME1 162330Z 06007KT 33/16 A2988 RMK A01 T03290164  RH  037%=      5-min Rain = 0
KME1 162331Z 07007KT 33/16 A2988 RMK A01 T03290162  RH  037%=      5-min Rain = 0
KME1 162332Z 08007KT 33/16 A2988 RMK A01 T03300163  RH  037%=      5-min Rain = 0
KME1 162333Z 07012KT 33/16 A2988 RMK A01 T03300161  RH  036%=      5-min Rain = 0
KME1 162334Z 07011G16KT 33/16 A2988 RMK A01 T03270158  RH  036%=      5-min Rain = 0
KME1 162335Z 07010KT 33/16 A2988 RMK A01 T03250158  RH  037%=      5-min Rain = 0
KME1 162336Z 06008KT 32/16 A2988 RMK A01 T03240159  RH  037%=      5-min Rain = 0
KME1 162337Z 07010KT 32/16 A2988 RMK A01 T03240161  RH  037%=      5-min Rain = 0
KME1 162338Z 07011KT 32/16 A2988 RMK A01 T03240160  RH  037%=      5-min Rain = 0
KME1 162339Z 07011KT 32/16 A2988 RMK A01 T03230159  RH  037%=      5-min Rain = 0
KME1 162340Z 07013KT 32/16 A2988 RMK A01 T03220157  RH  037%=      5-min Rain = 0
KME1 162341Z 06008KT 32/16 A2988 RMK A01 T03220158  RH  037%=      5-min Rain = 0
KME1 162342Z 07011KT 32/16 A2988 RMK A01 T03220159  RH  038%=      5-min Rain = 0
KME1 162343Z 07014KT 32/16 A2988 RMK A01 T03220157  RH  037%=      5-min Rain = 0
KME1 162344Z 07010KT 32/16 A2988 RMK A01 T03210156  RH  037%=      5-min Rain = 0
KME1 162345Z 08012KT 32/16 A2988 RMK A01 T03200156  RH  037%=      5-min Rain = 0
KME1 162346Z 06013KT 32/16 A2988 RMK A01 T03190155  RH  037%=      5-min Rain = 0
KME1 162347Z 07010KT 32/15 A2988 RMK A01 T03180154  RH  037%=      5-min Rain = 0
KME1 162348Z 06009KT 32/16 A2987 RMK A01 T03180155  RH  038%=      5-min Rain = 0
KME1 162349Z 07012KT 32/16 A2987 RMK A01 T03180155  RH  037%=      5-min Rain = 0
KME1 162350Z 06012KT 32/15 A2987 RMK A01 T03150154  RH  038%=      5-min Rain = 0
KME1 162351Z 07010KT 31/15 A2987 RMK A01 T03130151  RH  038%=      5-min Rain = 0
KME1 162352Z 06012KT 31/15 A2988 RMK A01 T03110151  RH  038%=      5-min Rain = 0
KME1 162353Z 06010KT 31/15 A2988 RMK A01 T03090152  RH  038%=      5-min Rain = 0
KME1 162354Z 06014KT 31/15 A2988 RMK A01 T03090151  RH  038%=      5-min Rain = 0
KME1 162355Z 06011KT 31/15 A2988 RMK A01 T03090151  RH  038%=      5-min Rain = 0
KME1 162356Z 06012KT 31/15 A2988 RMK A01 T03080151  RH  039%=      5-min Rain = 0
KME1 162357Z 06011KT 31/15 A2987 RMK A01 T03080152  RH  039%=      5-min Rain = 0
KME1 162358Z 07011KT 31/15 A2987 RMK A01 T03070152  RH  039%=      5-min Rain = 0
KME1 162359Z 07012KT 31/15 A2988 RMK A01 T03060152  RH  039%=      5-min Rain = 0
KME1 170000Z 07011KT 31/15 A2988 RMK A01 T03050152  RH  039%=      5-min Rain = 0
KME1 170001Z 07010KT 31/15 A2988 RMK A01 T03050152  RH  040%=      5-min Rain = 0
KME1 170002Z 06009KT 30/15 A2987 RMK A01 T03040152  RH  040%=      5-min Rain = 0
KME1 170003Z 06010KT 30/15 A2987 RMK A01 T03040152  RH  040%=      5-min Rain = 0
KME1 170004Z 06010KT 30/15 A2988 RMK A01 T03030152  RH  040%=      5-min Rain = 0
KME1 170005Z 05008KT 30/15 A2988 RMK A01 T03030153  RH  040%=      5-min Rain = 0
KME1 170006Z 05010KT 30/15 A2988 RMK A01 T03030153  RH  040%=      5-min Rain = 0
KME1 170007Z 06008KT 30/15 A2987 RMK A01 T03030153  RH  040%=      5-min Rain = 0
KME1 170008Z 06008KT 30/15 A2987 RMK A01 T03030153  RH  040%=      5-min Rain = 0
KME1 170009Z 06008G14KT 30/15 A2987 RMK A01 T03020152  RH  040%=      5-min Rain = 0
KME1 170010Z 06008KT 30/15 A2987 RMK A01 T03020153  RH  041%=      5-min Rain = 0
KME1 170011Z 05009KT 30/15 A2988 RMK A01 T03010153  RH  041%=      5-min Rain = 0
KME1 170012Z 06009KT 30/15 A2988 RMK A01 T03010152  RH  040%=      5-min Rain = 0
KME1 170013Z 06009KT 30/15 A2988 RMK A01 T03010152  RH  040%=      5-min Rain = 0
KME1 170014Z 06009KT 30/15 A2988 RMK A01 T03000151  RH  040%=      5-min Rain = 0
KME1 170015Z 06011KT 30/15 A2987 RMK A01 T03000151  RH  040%=      5-min Rain = 0
KME1 170016Z 06011KT 30/15 A2987 RMK A01 T02990150  RH  040%=      5-min Rain = 0
KME1 170017Z 06009KT 30/15 A2987 RMK A01 T02990151  RH  041%=      5-min Rain = 0
KME1 170018Z 06008KT 30/15 A2987 RMK A01 T02980152  RH  041%=      5-min Rain = 0
KME1 170019Z 05010KT 30/15 A2986 RMK A01 T02980152  RH  041%=      5-min Rain = 0
KME1 170020Z 06009KT 30/15 A2986 RMK A01 T02970151  RH  041%=      5-min Rain = 0
KME1 170021Z 07009KT 30/15 A2986 RMK A01 T02970152  RH  041%=      5-min Rain = 0
KME1 170022Z 07009KT 30/15 A2986 RMK A01 T02960152  RH  042%=      5-min Rain = 0
KME1 170023Z 06008KT 30/15 A2986 RMK A01 T02960153  RH  042%=      5-min Rain = 0
KME1 170024Z 06007KT 30/15 A2986 RMK A01 T02950153  RH  042%=      5-min Rain = 0
KME1 170025Z 06008G13KT 30/15 A2986 RMK A01 T02950153  RH  042%=      5-min Rain = 0
KME1 170026Z 07009KT 30/15 A2986 RMK A01 T02950154  RH  042%=      5-min Rain = 0
KME1 170027Z 06008KT 30/15 A2986 RMK A01 T02950154  RH  042%=      5-min Rain = 0
KME1 170028Z 06008KT 29/16 A2986 RMK A01 T02940155  RH  043%=      5-min Rain = 0
KME1 170029Z 06008KT 29/16 A2986 RMK A01 T02940155  RH  043%=      5-min Rain = 0
KME1 170030Z 07007KT 29/16 A2986 RMK A01 T02940156  RH  043%=      5-min Rain = 0
KME1 170031Z 07007KT 29/16 A2986 RMK A01 T02930156  RH  043%=      5-min Rain = 0
KME1 170032Z 07008KT 29/16 A2986 RMK A01 T02930156  RH  044%=      5-min Rain = 0
KME1 170033Z 07008KT 29/16 A2986 RMK A01 T02930157  RH  044%=      5-min Rain = 0
KME1 170034Z 08007KT 29/16 A2986 RMK A01 T02920157  RH  044%=      5-min Rain = 0
KME1 170035Z 07009KT 29/16 A2986 RMK A01 T02920156  RH  044%=      5-min Rain = 0
KME1 170036Z 07007KT 29/16 A2986 RMK A01 T02920156  RH  044%=      5-min Rain = 0
KME1 170037Z 07007KT 29/16 A2986 RMK A01 T02920157  RH  044%=      5-min Rain = 0
KME1 170038Z 07007KT 29/16 A2986 RMK A01 T02920157  RH  044%=      5-min Rain = 0
KME1 170039Z 07006KT 29/16 A2987 RMK A01 T02920157  RH  044%=      5-min Rain = 0
KME1 170040Z 06007KT 29/16 A2987 RMK A01 T02910158  RH  044%=      5-min Rain = 0
KME1 170041Z 06007KT 29/16 A2987 RMK A01 T02910157  RH  044%=      5-min Rain = 0
KME1 170042Z 05007KT 29/16 A2987 RMK A01 T02910157  RH  044%=      5-min Rain = 0
KME1 170043Z 06008KT 29/16 A2987 RMK A01 T02910158  RH  044%=      5-min Rain = 0
KME1 170044Z 06008KT 29/16 A2987 RMK A01 T02900158  RH  045%=      5-min Rain = 0
KME1 170045Z 06007KT 29/16 A2987 RMK A01 T02900159  RH  045%=      5-min Rain = 0
KME1 170046Z 06008KT 29/16 A2987 RMK A01 T02890159  RH  045%=      5-min Rain = 0
KME1 170047Z 06009KT 29/16 A2987 RMK A01 T02890158  RH  045%=      5-min Rain = 0
KME1 170048Z 06009KT 29/16 A2986 RMK A01 T02890158  RH  045%=      5-min Rain = 0
KME1 170049Z 06007KT 29/16 A2986 RMK A01 T02880158  RH  045%=      5-min Rain = 0
KME1 170050Z 06006KT 29/16 A2987 RMK A01 T02880159  RH  046%=      5-min Rain = 0
KME1 170051Z 07008KT 29/16 A2987 RMK A01 T02870159  RH  046%=      5-min Rain = 0
KME1 170052Z 07008KT 29/16 A2987 RMK A01 T02870159  RH  046%=      5-min Rain = 0
KME1 170053Z 07008KT 29/16 A2987 RMK A01 T02870159  RH  046%=      5-min Rain = 0
KME1 170054Z 07006KT 29/16 A2987 RMK A01 T02870159  RH  046%=      5-min Rain = 0
KME1 170055Z 08006KT 29/16 A2987 RMK A01 T02870160  RH  046%=      5-min Rain = 0
KME1 170056Z 08008KT 29/16 A2988 RMK A01 T02860158  RH  046%=      5-min Rain = 0
KME1 170057Z 08009KT 29/16 A2988 RMK A01 T02860158  RH  046%=      5-min Rain = 0
KME1 170058Z 08009KT 29/16 A2988 RMK A01 T02860157  RH  046%=      5-min Rain = 0
KME1 170059Z 07008KT 29/16 A2989 RMK A01 T02860157  RH  045%=      5-min Rain = 0
KME1 170100Z 07007KT 29/16 A2989 RMK A01 T02870157  RH  045%=      5-min Rain = 0
KME1 170101Z 06006KT 29/16 A299 RMK A01 T02870157  RH  045%=      5-min Rain = 0
KME1 170102Z 07008KT 29/16 A299 RMK A01 T02870157  RH  045%=      5-min Rain = 0
KME1 170103Z 06007KT 29/16 A299 RMK A01 T02870157  RH  045%=      5-min Rain = 0
KME1 170104Z 06006KT 29/16 A299 RMK A01 T02870156  RH  045%=      5-min Rain = 0
KME1 170105Z 06006KT 29/16 A299 RMK A01 T02860157  RH  045%=      5-min Rain = 0
KME1 170106Z 06009KT 29/16 A299 RMK A01 T02860156  RH  045%=      5-min Rain = 0
KME1 170107Z 06008KT 29/16 A299 RMK A01 T02860155  RH  045%=      5-min Rain = 0
KME1 170108Z 06010KT 29/16 A2989 RMK A01 T02850155  RH  045%=      5-min Rain = 0
KME1 170109Z 07010KT 29/15 A2989 RMK A01 T02850154  RH  045%=      5-min Rain = 0
KME1 170110Z 07009KT 29/15 A2989 RMK A01 T02850152  RH  044%=      5-min Rain = 0
KME1 170111Z 07009KT 29/15 A2989 RMK A01 T02850153  RH  044%=      5-min Rain = 0
KME1 170112Z 07010KT 29/15 A299 RMK A01 T02860153  RH  044%=      5-min Rain = 0
KME1 170113Z 08010KT 29/15 A299 RMK A01 T02860152  RH  044%=      5-min Rain = 0
KME1 170114Z 07010KT 29/15 A299 RMK A01 T02860150  RH  044%=      5-min Rain = 0
KME1 170115Z 06011KT 29/15 A299 RMK A01 T02860151  RH  044%=      5-min Rain = 0
KME1 170116Z 07010G15KT 29/15 A299 RMK A01 T02850150  RH  044%=      5-min Rain = 0
KME1 170117Z 07010KT 29/15 A299 RMK A01 T02850150  RH  044%=      5-min Rain = 0
KME1 170118Z 07010KT 29/15 A299 RMK A01 T02850150  RH  044%=      5-min Rain = 0
KME1 170119Z 06009KT 29/15 A299 RMK A01 T02850150  RH  044%=      5-min Rain = 0
KME1 170120Z 06009KT 29/15 A299 RMK A01 T02850150  RH  044%=      5-min Rain = 0
KME1 170121Z 05011KT 28/15 A299 RMK A01 T02840150  RH  044%=      5-min Rain = 0
KME1 170122Z 05008KT 28/15 A299 RMK A01 T02840150  RH  044%=      5-min Rain = 0
KME1 170123Z 05010KT 28/15 A299 RMK A01 T02840150  RH  044%=      5-min Rain = 0
KME1 170124Z 04009KT 28/15 A2991 RMK A01 T02830150  RH  044%=      5-min Rain = 0
KME1 170125Z 04010KT 28/15 A2991 RMK A01 T02830150  RH  044%=      5-min Rain = 0
KME1 170126Z 03010KT 28/15 A2992 RMK A01 T02830149  RH  044%=      5-min Rain = 0
KME1 170127Z 03010KT 28/15 A2992 RMK A01 T02830149  RH  044%=      5-min Rain = 0
KME1 170128Z 02011KT 28/15 A2993 RMK A01 T02830150  RH  044%=      5-min Rain = 0
KME1 170129Z 01012KT 28/15 A2993 RMK A01 T02830151  RH  045%=      5-min Rain = 0
KME1 170130Z 02011KT 28/15 A2994 RMK A01 T02830151  RH  045%=      5-min Rain = 0
KME1 170131Z 02013KT 28/15 A2994 RMK A01 T02830151  RH  045%=      5-min Rain = 0
KME1 170132Z 03013KT 28/15 A2994 RMK A01 T02830147  RH  044%=      5-min Rain = 0
KME1 170133Z 04011KT 28/15 A2994 RMK A01 T02830146  RH  043%=      5-min Rain = 0
KME1 170134Z 03011KT 28/15 A2994 RMK A01 T02830147  RH  043%=      5-min Rain = 0
KME1 170135Z 02016KT 28/15 A2994 RMK A01 T02830146  RH  043%=      5-min Rain = 0
KME1 170136Z 02018G26KT 28/14 A2994 RMK A01 T02830138  RH  041%=      5-min Rain = 0
KME1 170137Z 01021KT 28/12 A2994 RMK A01 T02820120  RH  037%=      5-min Rain = 0
KME1 170138Z 01019KT 28/12 A2994 RMK A01 T02790115  RH  036%=      5-min Rain = 0
KME1 170139Z 01023G29KT 27/12 A2994 RMK A01 T02740117  RH  038%=      5-min Rain = 0
KME1 170140Z 02024G29KT 27/12 A2995 RMK A01 T02710119  RH  039%=      5-min Rain = 0
KME1 170141Z 02021G28KT 26/13 A2995 RMK A01 T02640132  RH  044%=      5-min Rain = 0
KME1 170142Z 02022KT 25/14 A2995 RMK A01 T02480135  RH  049%=      5-min Rain = 0.02
KME1 170143Z 01019G28KT 24/14 A2995 RMK A01 T02370137  RH  053%=      5-min Rain = 0
KME1 170144Z 01022G28KT 23/14 A2995 RMK A01 T02300140  RH  057%=      5-min Rain = 0.01
KME1 170145Z 01022KT 23/15 A2996 RMK A01 T02270145  RH  060%=      5-min Rain = 0
KME1 170146Z 36020G25KT 22/15 A2996 RMK A01 T02220148  RH  063%=      5-min Rain = 0
KME1 170147Z 36019KT 22/15 A2996 RMK A01 T02190149  RH  064%=      5-min Rain = 0.01
KME1 170148Z 35016KT 22/15 A2997 RMK A01 T02180151  RH  066%=      5-min Rain = 0
KME1 170149Z 35016G21KT 22/16 A2997 RMK A01 T02150155  RH  069%=      5-min Rain = 0
KME1 170150Z 35016G23KT 21/15 A2998 RMK A01 T02130154  RH  069%=      5-min Rain = 0.01
KME1 170151Z 34013KT 21/16 A2998 RMK A01 T02110157  RH  071%=      5-min Rain = 0.03
KME1 170152Z 34016KT 21/16 A2998 RMK A01 T02070158  RH  074%=      5-min Rain = 0.01
KME1 170153Z 36013G18KT 20/16 A2998 RMK A01 T02040156  RH  074%=      5-min Rain = 0.01
KME1 170154Z 35012KT 20/16 A2998 RMK A01 T02020158  RH  076%=      5-min Rain = 0
KME1 170155Z 00012KT 20/16 A2998 RMK A01 T02000157  RH  076%=      5-min Rain = 0.01
KME1 170156Z 36009KT 20/16 A2998 RMK A01 T02000155  RH  076%=      5-min Rain = 0
KME1 170157Z 36007KT 20/16 A2998 RMK A01 T02000159  RH  077%=      5-min Rain = 0.02
KME1 170158Z 36008KT 20/16 A2998 RMK A01 T01980159  RH  078%=      5-min Rain = 0.01
KME1 170159Z 01005KT 20/16 A2999 RMK A01 T01960159  RH  079%=      5-min Rain = 0.01
KME1 170200Z 06003KT 19/16 A2999 RMK A01 T01940160  RH  081%=      5-min Rain = 0.02
KME1 170201Z 05002KT 19/16 A2999 RMK A01 T01920161  RH  082%=      5-min Rain = 0.01
KME1 170202Z 06001KT 19/16 A2999 RMK A01 T01910158  RH  081%=      5-min Rain = 0.01
KME1 170203Z 13003KT 19/16 A2998 RMK A01 T01900157  RH  081%=      5-min Rain = 0
KME1 170204Z 13006KT 19/16 A2998 RMK A01 T01900158  RH  082%=      5-min Rain = 0.01
KME1 170205Z 15010KT 19/16 A2998 RMK A01 T01900161  RH  083%=      5-min Rain = 0
KME1 170206Z 16012KT 19/16 A2997 RMK A01 T01890162  RH  084%=      5-min Rain = 0.01
KME1 170207Z 15013KT 19/16 A2996 RMK A01 T01890164  RH  086%=      5-min Rain = 0
KME1 170208Z 15015KT 19/16 A2995 RMK A01 T01880163  RH  085%=      5-min Rain = 0
KME1 170209Z 15017KT 19/16 A2994 RMK A01 T01880161  RH  085%=      5-min Rain = 0
KME1 170210Z 14019KT 19/16 A2993 RMK A01 T01880158  RH  083%=      5-min Rain = 0
KME1 170211Z 14014KT 19/16 A2993 RMK A01 T01900157  RH  081%=      5-min Rain = 0
KME1 170212Z 14015G21KT 19/16 A2992 RMK A01 T01920155  RH  079%=      5-min Rain = 0
KME1 170213Z 13018G23KT 20/15 A2992 RMK A01 T01950153  RH  077%=      5-min Rain = 0
KME1 170214Z 13016G24KT 20/15 A2991 RMK A01 T01970150  RH  074%=      5-min Rain = 0
KME1 170215Z 13015KT 20/15 A2991 RMK A01 T01990150  RH  074%=      5-min Rain = 0
KME1 170216Z 13015G20KT 20/15 A2991 RMK A01 T02000149  RH  073%=      5-min Rain = 0
KME1 170217Z 13013G19KT 20/15 A2991 RMK A01 T02020151  RH  073%=      5-min Rain = 0
KME1 170218Z 12011KT 20/15 A2991 RMK A01 T02020152  RH  073%=      5-min Rain = 0
KME1 170219Z 13013G19KT 20/15 A2991 RMK A01 T02020153  RH  073%=      5-min Rain = 0
KME1 170220Z 13012G17KT 20/15 A2991 RMK A01 T02030151  RH  072%=      5-min Rain = 0
KME1 170221Z 14012KT 20/15 A2992 RMK A01 T02040151  RH  072%=      5-min Rain = 0
KME1 170222Z 14012KT 21/15 A2992 RMK A01 T02060151  RH  071%=      5-min Rain = 0
KME1 170223Z 15011KT 21/15 A2992 RMK A01 T02070151  RH  070%=      5-min Rain = 0
KME1 170224Z 16011KT 21/15 A2992 RMK A01 T02090153  RH  070%=      5-min Rain = 0
KME1 170225Z 17011KT 21/15 A2993 RMK A01 T02090153  RH  070%=      5-min Rain = 0
KME1 170226Z 18012KT 21/15 A2993 RMK A01 T02090154  RH  071%=      5-min Rain = 0
KME1 170227Z 19011KT 21/16 A2993 RMK A01 T02090156  RH  072%=      5-min Rain = 0
KME1 170228Z 20012G17KT 21/16 A2994 RMK A01 T02090159  RH  073%=      5-min Rain = 0
KME1 170229Z 19013KT 21/16 A2994 RMK A01 T02060159  RH  074%=      5-min Rain = 0
KME1 170230Z 19013KT 21/16 A2994 RMK A01 T02050158  RH  075%=      5-min Rain = 0
KME1 170231Z 19012KT 21/16 A2994 RMK A01 T02050159  RH  075%=      5-min Rain = 0
KME1 170232Z 20011KT 20/16 A2994 RMK A01 T02040160  RH  076%=      5-min Rain = 0
KME1 170233Z 20011KT 20/16 A2994 RMK A01 T02020160  RH  077%=      5-min Rain = 0
KME1 170234Z 21011KT 20/16 A2994 RMK A01 T02000161  RH  078%=      5-min Rain = 0
KME1 170235Z 20011KT 20/16 A2994 RMK A01 T01980160  RH  079%=      5-min Rain = 0
KME1 170236Z 19011KT 20/16 A2994 RMK A01 T01980160  RH  079%=      5-min Rain = 0
KME1 170237Z 19009G15KT 20/16 A2993 RMK A01 T01980159  RH  078%=      5-min Rain = 0
KME1 170238Z 19012G17KT 20/16 A2993 RMK A01 T01980158  RH  078%=      5-min Rain = 0
KME1 170239Z 18012G17KT 20/16 A2993 RMK A01 T02000159  RH  077%=      5-min Rain = 0
KME1 170240Z 18011KT 20/16 A2993 RMK A01 T02010159  RH  077%=      5-min Rain = 0
KME1 170241Z 18013KT 20/16 A2993 RMK A01 T02020159  RH  076%=      5-min Rain = 0
KME1 170242Z 17014G19KT 20/16 A2993 RMK A01 T02030159  RH  076%=      5-min Rain = 0
KME1 170243Z 18013KT 20/16 A2993 RMK A01 T02040156  RH  074%=      5-min Rain = 0
KME1 170244Z 17012KT 21/16 A2994 RMK A01 T02050156  RH  073%=      5-min Rain = 0
KME1 170245Z 18010KT 21/16 A2994 RMK A01 T02060156  RH  073%=      5-min Rain = 0
KME1 170246Z 18009KT 21/16 A2994 RMK A01 T02060156  RH  073%=      5-min Rain = 0
KME1 170247Z 18007KT 21/16 A2994 RMK A01 T02060157  RH  073%=      5-min Rain = 0
KME1 170248Z 18009KT 21/16 A2994 RMK A01 T02060158  RH  074%=      5-min Rain = 0
KME1 170249Z 17008KT 21/16 A2994 RMK A01 T02060158  RH  074%=      5-min Rain = 0
KME1 170250Z 17008KT 21/16 A2994 RMK A01 T02060159  RH  074%=      5-min Rain = 0
KME1 170251Z 17008KT 21/16 A2994 RMK A01 T02060158  RH  074%=      5-min Rain = 0
KME1 170252Z 17007KT 21/16 A2994 RMK A01 T02070159  RH  074%=      5-min Rain = 0
KME1 170253Z 16008KT 21/16 A2993 RMK A01 T02070158  RH  073%=      5-min Rain = 0
KME1 170254Z 17008KT 21/16 A2993 RMK A01 T02080157  RH  073%=      5-min Rain = 0
KME1 170255Z 16007KT 21/16 A2993 RMK A01 T02090157  RH  072%=      5-min Rain = 0
KME1 170256Z 15007KT 21/16 A2993 RMK A01 T02100157  RH  072%=      5-min Rain = 0
KME1 170257Z 16007KT 21/16 A2992 RMK A01 T02100157  RH  072%=      5-min Rain = 0
KME1 170258Z 16007KT 21/16 A2992 RMK A01 T02100156  RH  071%=      5-min Rain = 0
KME1 170259Z 16008KT 21/16 A2992 RMK A01 T02110157  RH  071%=      5-min Rain = 0
KME1 170300Z 18009KT 21/16 A2992 RMK A01 T02110156  RH  071%=      5-min Rain = 0
KME1 170301Z 19009KT 21/16 A2992 RMK A01 T02120156  RH  070%=      5-min Rain = 0
KME1 170302Z 19006KT 21/16 A2992 RMK A01 T02120156  RH  070%=      5-min Rain = 0
KME1 170303Z 18008KT 21/16 A2992 RMK A01 T02130156  RH  070%=      5-min Rain = 0
KME1 170304Z 19006KT 21/15 A2993 RMK A01 T02140154  RH  068%=      5-min Rain = 0
KME1 170305Z 19006KT 22/15 A2993 RMK A01 T02160152  RH  067%=      5-min Rain = 0
KME1 170306Z 20005KT 22/15 A2993 RMK A01 T02170154  RH  067%=      5-min Rain = 0
KME1 170307Z 21006KT 22/16 A2993 RMK A01 T02180155  RH  067%=      5-min Rain = 0
KME1 170308Z 21006KT 22/16 A2993 RMK A01 T02180155  RH  068%=      5-min Rain = 0
KME1 170309Z 22007KT 22/16 A2993 RMK A01 T02170156  RH  068%=      5-min Rain = 0
KME1 170310Z 21007KT 22/16 A2993 RMK A01 T02160157  RH  069%=      5-min Rain = 0
KME1 170311Z 21006KT 22/16 A2993 RMK A01 T02160156  RH  069%=      5-min Rain = 0
KME1 170312Z 20007KT 22/16 A2993 RMK A01 T02150156  RH  069%=      5-min Rain = 0
KME1 170313Z 19009KT 22/16 A2993 RMK A01 T02150156  RH  069%=      5-min Rain = 0
KME1 170314Z 20008KT 22/15 A2993 RMK A01 T02150153  RH  067%=      5-min Rain = 0
KME1 170315Z 20007KT 22/15 A2993 RMK A01 T02170154  RH  067%=      5-min Rain = 0
KME1 170316Z 19007G12KT 22/15 A2993 RMK A01 T02170153  RH  067%=      5-min Rain = 0
KME1 170317Z 19007KT 22/15 A2993 RMK A01 T02180152  RH  066%=      5-min Rain = 0
KME1 170318Z 20007KT 22/15 A2993 RMK A01 T02190152  RH  066%=      5-min Rain = 0
KME1 170319Z 21009KT 22/15 A2994 RMK A01 T02190154  RH  066%=      5-min Rain = 0
KME1 170320Z 22009KT 22/16 A2994 RMK A01 T02180155  RH  068%=      5-min Rain = 0
KME1 170321Z 21009KT 22/16 A2994 RMK A01 T02160157  RH  069%=      5-min Rain = 0
KME1 170322Z 20007KT 21/16 A2993 RMK A01 T02140157  RH  070%=      5-min Rain = 0
KME1 170323Z 19008KT 21/16 A2993 RMK A01 T02130155  RH  069%=      5-min Rain = 0
KME1 170324Z 19009KT 21/15 A2993 RMK A01 T02140152  RH  068%=      5-min Rain = 0
KME1 170325Z 20008KT 22/15 A2993 RMK A01 T02160153  RH  068%=      5-min Rain = 0
KME1 170326Z 20007KT 22/15 A2993 RMK A01 T02160154  RH  068%=      5-min Rain = 0
KME1 170327Z 19003KT 22/16 A2994 RMK A01 T02160155  RH  068%=      5-min Rain = 0
KME1 170328Z 17003KT 22/16 A2994 RMK A01 T02150156  RH  069%=      5-min Rain = 0
KME1 170329Z 16002KT 21/16 A2994 RMK A01 T02140156  RH  069%=      5-min Rain = 0
KME1 170330Z 15003KT 21/16 A2994 RMK A01 T02130155  RH  069%=      5-min Rain = 0
KME1 170331Z 10003KT 21/16 A2994 RMK A01 T02120155  RH  070%=      5-min Rain = 0
KME1 170332Z 06003KT 21/16 A2994 RMK A01 T02120156  RH  070%=      5-min Rain = 0
KME1 170333Z 05006KT 21/16 A2994 RMK A01 T02110156  RH  071%=      5-min Rain = 0
KME1 170334Z 04006KT 21/16 A2994 RMK A01 T02100156  RH  071%=      5-min Rain = 0
KME1 170335Z 03007KT 21/16 A2994 RMK A01 T02090155  RH  071%=      5-min Rain = 0
KME1 170336Z 02009KT 21/16 A2994 RMK A01 T02090156  RH  071%=      5-min Rain = 0
KME1 170337Z 02011KT 21/16 A2994 RMK A01 T02090155  RH  071%=      5-min Rain = 0
KME1 170338Z 02011KT 21/15 A2994 RMK A01 T02090154  RH  071%=      5-min Rain = 0
KME1 170339Z 03008KT 21/15 A2994 RMK A01 T02110152  RH  069%=      5-min Rain = 0
KME1 170340Z 07009KT 21/15 A2995 RMK A01 T02140148  RH  066%=      5-min Rain = 0
KME1 170341Z 09006KT 22/14 A2995 RMK A01 T02190143  RH  062%=      5-min Rain = 0
KME1 170342Z 11005KT 23/14 A2995 RMK A01 T02250143  RH  059%=      5-min Rain = 0
KME1 170343Z 19004KT 23/15 A2995 RMK A01 T02270147  RH  060%=      5-min Rain = 0
KME1 170344Z 23005KT 23/15 A2995 RMK A01 T02260151  RH  063%=      5-min Rain = 0
KME1 170345Z 18002KT 22/15 A2995 RMK A01 T02230153  RH  065%=      5-min Rain = 0
KME1 170346Z 21002KT 22/15 A2995 RMK A01 T02200152  RH  065%=      5-min Rain = 0
KME1 170347Z 22002KT 22/15 A2995 RMK A01 T02190148  RH  064%=      5-min Rain = 0
KME1 170348Z 21001KT 22/15 A2996 RMK A01 T02190147  RH  063%=      5-min Rain = 0
KME1 170349Z 18001KT 22/15 A2996 RMK A01 T02190149  RH  064%=      5-min Rain = 0
KME1 170350Z 19001KT 22/15 A2996 RMK A01 T02180148  RH  064%=      5-min Rain = 0
KME1 170351Z 26001KT 22/15 A2996 RMK A01 T02180150  RH  065%=      5-min Rain = 0
KME1 170352Z 31000KT 22/15 A2996 RMK A01 T02170152  RH  066%=      5-min Rain = 0
KME1 170353Z 35000KT 22/16 A2996 RMK A01 T02150155  RH  068%=      5-min Rain = 0
KME1 170354Z 35004KT 21/16 A2996 RMK A01 T02130156  RH  070%=      5-min Rain = 0
KME1 170355Z 36005KT 21/16 A2996 RMK A01 T02100155  RH  071%=      5-min Rain = 0
KME1 170356Z 34006KT 21/15 A2996 RMK A01 T02080154  RH  071%=      5-min Rain = 0
KME1 170357Z 34005KT 21/15 A2996 RMK A01 T02070154  RH  071%=      5-min Rain = 0
KME1 170358Z 33004KT 21/15 A2996 RMK A01 T02070153  RH  071%=      5-min Rain = 0
KME1 170359Z 33004KT 21/15 A2996 RMK A01 T02060154  RH  072%=      5-min Rain = 0
KME1 170400Z 32004KT 21/15 A2996 RMK A01 T02050153  RH  072%=      5-min Rain = 0
KME1 170401Z 31004KT 21/15 A2996 RMK A01 T02050154  RH  072%=      5-min Rain = 0
KME1 170402Z 30003KT 20/16 A2996 RMK A01 T02040156  RH  074%=      5-min Rain = 0
KME1 170403Z 30003KT 20/16 A2996 RMK A01 T02040158  RH  075%=      5-min Rain = 0
KME1 170404Z 29003KT 20/16 A2996 RMK A01 T02020158  RH  075%=      5-min Rain = 0
KME1 170405Z 29003KT 20/16 A2996 RMK A01 T02020158  RH  076%=      5-min Rain = 0
KME1 170406Z 28003KT 20/16 A2996 RMK A01 T02010158  RH  076%=      5-min Rain = 0
KME1 170407Z 28003KT 20/16 A2996 RMK A01 T02000156  RH  076%=      5-min Rain = 0
KME1 170408Z 29002KT 20/16 A2996 RMK A01 T02000155  RH  075%=      5-min Rain = 0
KME1 170409Z 28002KT 20/16 A2996 RMK A01 T02000156  RH  076%=      5-min Rain = 0
KME1 170410Z 26003KT 20/16 A2996 RMK A01 T02000156  RH  076%=      5-min Rain = 0
KME1 170411Z 25004KT 20/16 A2996 RMK A01 T02000157  RH  076%=      5-min Rain = 0
KME1 170412Z 26003KT 20/16 A2996 RMK A01 T02000158  RH  077%=      5-min Rain = 0
KME1 170413Z 27002KT 20/16 A2996 RMK A01 T02000159  RH  077%=      5-min Rain = 0
KME1 170414Z 28001KT 20/16 A2996 RMK A01 T01990157  RH  077%=      5-min Rain = 0
KME1 170415Z 29000KT 20/16 A2996 RMK A01 T01980159  RH  078%=      5-min Rain = 0
KME1 170416Z 29001KT 20/16 A2997 RMK A01 T01980162  RH  080%=      5-min Rain = 0
KME1 170417Z 32001KT 20/16 A2997 RMK A01 T01970162  RH  080%=      5-min Rain = 0
KME1 170418Z 04002KT 20/16 A2997 RMK A01 T01960162  RH  080%=      5-min Rain = 0
KME1 170419Z 04002KT 20/16 A2996 RMK A01 T01950162  RH  081%=      5-min Rain = 0
KME1 170420Z 04002KT 19/16 A2996 RMK A01 T01940160  RH  081%=      5-min Rain = 0
KME1 170421Z 03002KT 19/16 A2996 RMK A01 T01930160  RH  081%=      5-min Rain = 0
KME1 170422Z 01001KT 19/16 A2996 RMK A01 T01920159  RH  081%=      5-min Rain = 0
KME1 170423Z 00000KT 19/16 A2996 RMK A01 T01910158  RH  081%=      5-min Rain = 0
KME1 170424Z 25000KT 19/16 A2996 RMK A01 T01920159  RH  081%=      5-min Rain = 0
KME1 170425Z 26001KT 19/16 A2996 RMK A01 T01910160  RH  082%=      5-min Rain = 0
KME1 170426Z 26001KT 19/16 A2996 RMK A01 T01910161  RH  083%=      5-min Rain = 0
KME1 170427Z 25001KT 19/16 A2996 RMK A01 T01910160  RH  083%=      5-min Rain = 0
KME1 170428Z 25001KT 19/16 A2996 RMK A01 T01910161  RH  083%=      5-min Rain = 0
KME1 170429Z 25001KT 19/16 A2996 RMK A01 T01900162  RH  084%=      5-min Rain = 0
KME1 170430Z 25001KT 19/16 A2996 RMK A01 T01900163  RH  084%=      5-min Rain = 0
KME1 170431Z 25001KT 19/16 A2996 RMK A01 T01900164  RH  085%=      5-min Rain = 0
KME1 170432Z 29001KT 19/17 A2996 RMK A01 T01890165  RH  085%=      5-min Rain = 0
KME1 170433Z 30001KT 19/17 A2996 RMK A01 T01890166  RH  087%=      5-min Rain = 0
KME1 170434Z 35001KT 19/17 A2996 RMK A01 T01880166  RH  087%=      5-min Rain = 0
KME1 170435Z 36002KT 19/17 A2996 RMK A01 T01880166  RH  087%=      5-min Rain = 0
KME1 170436Z 34002KT 19/17 A2996 RMK A01 T01870166  RH  087%=      5-min Rain = 0
KME1 170437Z 34003KT 19/17 A2996 RMK A01 T01860166  RH  088%=      5-min Rain = 0
KME1 170438Z 32002KT 19/17 A2996 RMK A01 T01860166  RH  088%=      5-min Rain = 0
KME1 170439Z 31001KT 19/17 A2996 RMK A01 T01860166  RH  088%=      5-min Rain = 0
KME1 170440Z 31001KT 19/17 A2995 RMK A01 T01850165  RH  088%=      5-min Rain = 0
KME1 170441Z 34002KT 19/17 A2995 RMK A01 T01850165  RH  088%=      5-min Rain = 0
KME1 170442Z 33002KT 19/17 A2995 RMK A01 T01850165  RH  088%=      5-min Rain = 0
KME1 170443Z 29002KT 19/17 A2995 RMK A01 T01850165  RH  088%=      5-min Rain = 0
KME1 170444Z 27002KT 19/17 A2995 RMK A01 T01850165  RH  088%=      5-min Rain = 0
KME1 170445Z 23003KT 19/17 A2995 RMK A01 T01850165  RH  088%=      5-min Rain = 0
KME1 170446Z 21003KT 19/17 A2996 RMK A01 T01850165  RH  088%=      5-min Rain = 0
KME1 170447Z 21002KT 18/16 A2996 RMK A01 T01840164  RH  088%=      5-min Rain = 0
KME1 170448Z 23003KT 19/16 A2996 RMK A01 T01850164  RH  088%=      5-min Rain = 0
KME1 170449Z 23003KT 18/16 A2996 RMK A01 T01840164  RH  088%=      5-min Rain = 0
KME1 170450Z 22002KT 19/16 A2996 RMK A01 T01850164  RH  088%=      5-min Rain = 0
KME1 170451Z 12000KT 19/16 A2996 RMK A01 T01850164  RH  088%=      5-min Rain = 0
KME1 170452Z 08000KT 19/17 A2996 RMK A01 T01850165  RH  088%=      5-min Rain = 0
KME1 170453Z 00000KT 19/17 A2996 RMK A01 T01850165  RH  088%=      5-min Rain = 0
KME1 170454Z 00000KT 19/17 A2996 RMK A01 T01850165  RH  088%=      5-min Rain = 0
KME1 170455Z 08001KT 18/17 A2996 RMK A01 T01840165  RH  089%=      5-min Rain = 0
KME1 170456Z 05004KT 18/17 A2996 RMK A01 T01840166  RH  089%=      5-min Rain = 0
KME1 170457Z 05004KT 18/17 A2996 RMK A01 T01840166  RH  089%=      5-min Rain = 0
KME1 170458Z 06004KT 18/17 A2996 RMK A01 T01820165  RH  090%=      5-min Rain = 0
KME1 170459Z 07003KT 18/17 A2996 RMK A01 T01820165  RH  090%=      5-min Rain = 0

Page generated in 0.0821 seconds.